<?xml version="1.0" encoding="UTF-8" standalone="no" ?>
<gpx xmlns="http://www.topografix.com/GPX/1/1" xmlns:xsi="http://www.w3.org/2001/XMLSchema-instance" xsi:schemaLocation="http://www.topografix.com/GPX/1/1 http://www.topografix.com/GPX/1/1/gpx.xsd" version="1.1" creator="VisuGPX - https://www.visugpx.com">
  <metadata>
    <name>Charpey les Rattiers</name>
    <desc><![CDATA[File with points/tracks from Locus Map/3.36.2]]></desc>
  </metadata>
  <trk>
    <name><![CDATA[F26300 Charpey les Rattiers R2000 AM]]></name>
    <trkseg>
      <trkpt lat="44.93704" lon="5.09478">
        <ele>314.05</ele>
        <time>2019-02-18T12:35:02.000Z</time>
      </trkpt>
      <trkpt lat="44.93706" lon="5.0949">
        <ele>314.17</ele>
        <time>2019-02-18T12:35:31.000Z</time>
      </trkpt>
      <trkpt lat="44.93715" lon="5.09487">
        <ele>315.14</ele>
        <time>2019-02-18T12:38:42.000Z</time>
      </trkpt>
      <trkpt lat="44.93723" lon="5.09477">
        <ele>315.88</ele>
        <time>2019-02-18T12:38:54.000Z</time>
      </trkpt>
      <trkpt lat="44.93723" lon="5.09464">
        <ele>315.95</ele>
        <time>2019-02-18T12:39:05.000Z</time>
      </trkpt>
      <trkpt lat="44.93727" lon="5.0945">
        <ele>316.33</ele>
        <time>2019-02-18T12:39:15.000Z</time>
      </trkpt>
      <trkpt lat="44.93729" lon="5.09436">
        <ele>316.52</ele>
        <time>2019-02-18T12:39:25.000Z</time>
      </trkpt>
      <trkpt lat="44.93732" lon="5.09421">
        <ele>316.74</ele>
        <time>2019-02-18T12:39:35.000Z</time>
      </trkpt>
      <trkpt lat="44.93732" lon="5.09408">
        <ele>316.62</ele>
        <time>2019-02-18T12:39:47.000Z</time>
      </trkpt>
      <trkpt lat="44.93735" lon="5.09396">
        <ele>316.88</ele>
        <time>2019-02-18T12:40:02.000Z</time>
      </trkpt>
      <trkpt lat="44.93738" lon="5.09381">
        <ele>317.11</ele>
        <time>2019-02-18T12:40:16.000Z</time>
      </trkpt>
      <trkpt lat="44.93742" lon="5.09369">
        <ele>317.44</ele>
        <time>2019-02-18T12:40:29.000Z</time>
      </trkpt>
      <trkpt lat="44.93744" lon="5.09355">
        <ele>317.63</ele>
        <time>2019-02-18T12:40:43.000Z</time>
      </trkpt>
      <trkpt lat="44.9375" lon="5.09343">
        <ele>318.31</ele>
        <time>2019-02-18T12:40:53.000Z</time>
      </trkpt>
      <trkpt lat="44.93752" lon="5.09328">
        <ele>318.1</ele>
        <time>2019-02-18T12:41:03.000Z</time>
      </trkpt>
      <trkpt lat="44.93755" lon="5.09314">
        <ele>318.05</ele>
        <time>2019-02-18T12:41:13.000Z</time>
      </trkpt>
      <trkpt lat="44.93759" lon="5.093">
        <ele>317.86</ele>
        <time>2019-02-18T12:41:24.000Z</time>
      </trkpt>
      <trkpt lat="44.93761" lon="5.09286">
        <ele>317.18</ele>
        <time>2019-02-18T12:41:34.000Z</time>
      </trkpt>
      <trkpt lat="44.93763" lon="5.09271">
        <ele>316.41</ele>
        <time>2019-02-18T12:41:44.000Z</time>
      </trkpt>
      <trkpt lat="44.93766" lon="5.09257">
        <ele>315.86</ele>
        <time>2019-02-18T12:41:55.000Z</time>
      </trkpt>
      <trkpt lat="44.93769" lon="5.09243">
        <ele>315.06</ele>
        <time>2019-02-18T12:42:05.000Z</time>
      </trkpt>
      <trkpt lat="44.93773" lon="5.09231">
        <ele>314.9</ele>
        <time>2019-02-18T12:42:15.000Z</time>
      </trkpt>
      <trkpt lat="44.93777" lon="5.09218">
        <ele>313.89</ele>
        <time>2019-02-18T12:42:25.000Z</time>
      </trkpt>
      <trkpt lat="44.93782" lon="5.09203">
        <ele>312.65</ele>
        <time>2019-02-18T12:42:35.000Z</time>
      </trkpt>
      <trkpt lat="44.93791" lon="5.09193">
        <ele>311.99</ele>
        <time>2019-02-18T12:42:45.000Z</time>
      </trkpt>
      <trkpt lat="44.93797" lon="5.09179">
        <ele>310.06</ele>
        <time>2019-02-18T12:42:55.000Z</time>
      </trkpt>
      <trkpt lat="44.93805" lon="5.0917">
        <ele>309.01</ele>
        <time>2019-02-18T12:43:05.000Z</time>
      </trkpt>
      <trkpt lat="44.93814" lon="5.09165">
        <ele>308.76</ele>
        <time>2019-02-18T12:43:17.000Z</time>
      </trkpt>
      <trkpt lat="44.93824" lon="5.0916">
        <ele>308.41</ele>
        <time>2019-02-18T12:43:27.000Z</time>
      </trkpt>
      <trkpt lat="44.93837" lon="5.09156">
        <ele>308.39</ele>
        <time>2019-02-18T12:43:37.000Z</time>
      </trkpt>
      <trkpt lat="44.93847" lon="5.09155">
        <ele>308.66</ele>
        <time>2019-02-18T12:43:47.000Z</time>
      </trkpt>
      <trkpt lat="44.93857" lon="5.09156">
        <ele>309.39</ele>
        <time>2019-02-18T12:43:57.000Z</time>
      </trkpt>
      <trkpt lat="44.93867" lon="5.09154">
        <ele>309.69</ele>
        <time>2019-02-18T12:44:07.000Z</time>
      </trkpt>
      <trkpt lat="44.93876" lon="5.09155">
        <ele>310.27</ele>
        <time>2019-02-18T12:44:18.000Z</time>
      </trkpt>
      <trkpt lat="44.93882" lon="5.09139">
        <ele>308.66</ele>
        <time>2019-02-18T12:44:28.000Z</time>
      </trkpt>
      <trkpt lat="44.93883" lon="5.09125">
        <ele>307.29</ele>
        <time>2019-02-18T12:44:38.000Z</time>
      </trkpt>
      <trkpt lat="44.93886" lon="5.09107">
        <ele>305.7</ele>
        <time>2019-02-18T12:44:48.000Z</time>
      </trkpt>
      <trkpt lat="44.93882" lon="5.09091">
        <ele>304.15</ele>
        <time>2019-02-18T12:44:58.000Z</time>
      </trkpt>
      <trkpt lat="44.93881" lon="5.09077">
        <ele>302.85</ele>
        <time>2019-02-18T12:45:08.000Z</time>
      </trkpt>
      <trkpt lat="44.9388" lon="5.09061">
        <ele>301.39</ele>
        <time>2019-02-18T12:45:18.000Z</time>
      </trkpt>
      <trkpt lat="44.93878" lon="5.09045">
        <ele>300</ele>
        <time>2019-02-18T12:45:28.000Z</time>
      </trkpt>
      <trkpt lat="44.93875" lon="5.0903">
        <ele>298.72</ele>
        <time>2019-02-18T12:45:38.000Z</time>
      </trkpt>
      <trkpt lat="44.93874" lon="5.09014">
        <ele>297.49</ele>
        <time>2019-02-18T12:45:48.000Z</time>
      </trkpt>
      <trkpt lat="44.93873" lon="5.08997">
        <ele>296.22</ele>
        <time>2019-02-18T12:45:58.000Z</time>
      </trkpt>
      <trkpt lat="44.93872" lon="5.0898">
        <ele>295.07</ele>
        <time>2019-02-18T12:46:08.000Z</time>
      </trkpt>
      <trkpt lat="44.93869" lon="5.08965">
        <ele>294.01</ele>
        <time>2019-02-18T12:46:18.000Z</time>
      </trkpt>
      <trkpt lat="44.93867" lon="5.0895">
        <ele>292.98</ele>
        <time>2019-02-18T12:46:28.000Z</time>
      </trkpt>
      <trkpt lat="44.93864" lon="5.08936">
        <ele>292.06</ele>
        <time>2019-02-18T12:46:38.000Z</time>
      </trkpt>
      <trkpt lat="44.93864" lon="5.0892">
        <ele>291.07</ele>
        <time>2019-02-18T12:46:48.000Z</time>
      </trkpt>
      <trkpt lat="44.93863" lon="5.08904">
        <ele>290.11</ele>
        <time>2019-02-18T12:46:58.000Z</time>
      </trkpt>
      <trkpt lat="44.93862" lon="5.0889">
        <ele>289.26</ele>
        <time>2019-02-18T12:47:08.000Z</time>
      </trkpt>
      <trkpt lat="44.9386" lon="5.08875">
        <ele>288.33</ele>
        <time>2019-02-18T12:47:18.000Z</time>
      </trkpt>
      <trkpt lat="44.93855" lon="5.08861">
        <ele>287.46</ele>
        <time>2019-02-18T12:47:28.000Z</time>
      </trkpt>
      <trkpt lat="44.93849" lon="5.08846">
        <ele>286.66</ele>
        <time>2019-02-18T12:47:38.000Z</time>
      </trkpt>
      <trkpt lat="44.93847" lon="5.0883">
        <ele>285.93</ele>
        <time>2019-02-18T12:47:48.000Z</time>
      </trkpt>
      <trkpt lat="44.93849" lon="5.08813">
        <ele>285.18</ele>
        <time>2019-02-18T12:47:58.000Z</time>
      </trkpt>
      <trkpt lat="44.93853" lon="5.08797">
        <ele>284.45</ele>
        <time>2019-02-18T12:48:08.000Z</time>
      </trkpt>
      <trkpt lat="44.9386" lon="5.08783">
        <ele>283.7</ele>
        <time>2019-02-18T12:48:18.000Z</time>
      </trkpt>
      <trkpt lat="44.93865" lon="5.08767">
        <ele>282.82</ele>
        <time>2019-02-18T12:48:28.000Z</time>
      </trkpt>
      <trkpt lat="44.93869" lon="5.08753">
        <ele>281.99</ele>
        <time>2019-02-18T12:48:38.000Z</time>
      </trkpt>
      <trkpt lat="44.93875" lon="5.0874">
        <ele>281.13</ele>
        <time>2019-02-18T12:48:48.000Z</time>
      </trkpt>
      <trkpt lat="44.93882" lon="5.08727">
        <ele>280.3</ele>
        <time>2019-02-18T12:48:58.000Z</time>
      </trkpt>
      <trkpt lat="44.93887" lon="5.08712">
        <ele>279.56</ele>
        <time>2019-02-18T12:49:08.000Z</time>
      </trkpt>
      <trkpt lat="44.93891" lon="5.087">
        <ele>279.06</ele>
        <time>2019-02-18T12:49:19.000Z</time>
      </trkpt>
      <trkpt lat="44.9389" lon="5.08686">
        <ele>278.8</ele>
        <time>2019-02-18T12:49:29.000Z</time>
      </trkpt>
      <trkpt lat="44.93888" lon="5.08672">
        <ele>278.52</ele>
        <time>2019-02-18T12:49:39.000Z</time>
      </trkpt>
      <trkpt lat="44.93886" lon="5.08659">
        <ele>278.29</ele>
        <time>2019-02-18T12:49:49.000Z</time>
      </trkpt>
      <trkpt lat="44.93884" lon="5.08644">
        <ele>278.03</ele>
        <time>2019-02-18T12:49:59.000Z</time>
      </trkpt>
      <trkpt lat="44.93882" lon="5.08632">
        <ele>277.87</ele>
        <time>2019-02-18T12:50:21.000Z</time>
      </trkpt>
      <trkpt lat="44.93878" lon="5.08618">
        <ele>277.72</ele>
        <time>2019-02-18T12:51:06.000Z</time>
      </trkpt>
      <trkpt lat="44.9387" lon="5.08598">
        <ele>277.57</ele>
        <time>2019-02-18T12:51:16.000Z</time>
      </trkpt>
      <trkpt lat="44.93866" lon="5.08577">
        <ele>277.32</ele>
        <time>2019-02-18T12:51:26.000Z</time>
      </trkpt>
      <trkpt lat="44.93863" lon="5.08559">
        <ele>277.16</ele>
        <time>2019-02-18T12:51:36.000Z</time>
      </trkpt>
      <trkpt lat="44.93858" lon="5.08545">
        <ele>277.11</ele>
        <time>2019-02-18T12:51:46.000Z</time>
      </trkpt>
      <trkpt lat="44.93856" lon="5.08532">
        <ele>277.02</ele>
        <time>2019-02-18T12:51:57.000Z</time>
      </trkpt>
      <trkpt lat="44.93854" lon="5.0852">
        <ele>276.92</ele>
        <time>2019-02-18T12:52:10.000Z</time>
      </trkpt>
      <trkpt lat="44.93851" lon="5.08507">
        <ele>276.8</ele>
        <time>2019-02-18T12:52:20.000Z</time>
      </trkpt>
      <trkpt lat="44.93846" lon="5.08495">
        <ele>276.67</ele>
        <time>2019-02-18T12:52:34.000Z</time>
      </trkpt>
      <trkpt lat="44.93844" lon="5.08482">
        <ele>276.39</ele>
        <time>2019-02-18T12:52:56.000Z</time>
      </trkpt>
      <trkpt lat="44.93841" lon="5.08467">
        <ele>276.07</ele>
        <time>2019-02-18T12:53:06.000Z</time>
      </trkpt>
      <trkpt lat="44.93834" lon="5.08457">
        <ele>275.93</ele>
        <time>2019-02-18T12:53:23.000Z</time>
      </trkpt>
      <trkpt lat="44.9383" lon="5.08443">
        <ele>275.66</ele>
        <time>2019-02-18T12:53:33.000Z</time>
      </trkpt>
      <trkpt lat="44.93827" lon="5.08427">
        <ele>275.39</ele>
        <time>2019-02-18T12:53:43.000Z</time>
      </trkpt>
      <trkpt lat="44.93825" lon="5.08415">
        <ele>275.23</ele>
        <time>2019-02-18T12:53:54.000Z</time>
      </trkpt>
      <trkpt lat="44.93822" lon="5.084">
        <ele>275.19</ele>
        <time>2019-02-18T12:54:09.000Z</time>
      </trkpt>
      <trkpt lat="44.93819" lon="5.08386">
        <ele>275.29</ele>
        <time>2019-02-18T12:54:20.000Z</time>
      </trkpt>
      <trkpt lat="44.93814" lon="5.08374">
        <ele>275.58</ele>
        <time>2019-02-18T12:54:30.000Z</time>
      </trkpt>
      <trkpt lat="44.93808" lon="5.08365">
        <ele>276.08</ele>
        <time>2019-02-18T12:54:53.000Z</time>
      </trkpt>
      <trkpt lat="44.93806" lon="5.08353">
        <ele>276.33</ele>
        <time>2019-02-18T12:55:05.000Z</time>
      </trkpt>
      <trkpt lat="44.93803" lon="5.0834">
        <ele>276.53</ele>
        <time>2019-02-18T12:55:16.000Z</time>
      </trkpt>
      <trkpt lat="44.93798" lon="5.08327">
        <ele>276.7</ele>
        <time>2019-02-18T12:55:26.000Z</time>
      </trkpt>
      <trkpt lat="44.93795" lon="5.08315">
        <ele>276.52</ele>
        <time>2019-02-18T12:55:44.000Z</time>
      </trkpt>
      <trkpt lat="44.93787" lon="5.08306">
        <ele>276.89</ele>
        <time>2019-02-18T12:55:55.000Z</time>
      </trkpt>
      <trkpt lat="44.93783" lon="5.08293">
        <ele>276.35</ele>
        <time>2019-02-18T12:56:05.000Z</time>
      </trkpt>
      <trkpt lat="44.93781" lon="5.08277">
        <ele>275.4</ele>
        <time>2019-02-18T12:56:15.000Z</time>
      </trkpt>
      <trkpt lat="44.93781" lon="5.08264">
        <ele>274.4</ele>
        <time>2019-02-18T12:56:25.000Z</time>
      </trkpt>
      <trkpt lat="44.93782" lon="5.08251">
        <ele>273.53</ele>
        <time>2019-02-18T12:56:35.000Z</time>
      </trkpt>
      <trkpt lat="44.93782" lon="5.08237">
        <ele>272.88</ele>
        <time>2019-02-18T12:56:45.000Z</time>
      </trkpt>
      <trkpt lat="44.93777" lon="5.08225">
        <ele>272.53</ele>
        <time>2019-02-18T12:56:56.000Z</time>
      </trkpt>
      <trkpt lat="44.93774" lon="5.08212">
        <ele>272.04</ele>
        <time>2019-02-18T12:57:08.000Z</time>
      </trkpt>
      <trkpt lat="44.93765" lon="5.08212">
        <ele>272.52</ele>
        <time>2019-02-18T12:57:18.000Z</time>
      </trkpt>
      <trkpt lat="44.93754" lon="5.0821">
        <ele>273.11</ele>
        <time>2019-02-18T12:57:28.000Z</time>
      </trkpt>
      <trkpt lat="44.93743" lon="5.08211">
        <ele>274.02</ele>
        <time>2019-02-18T12:57:38.000Z</time>
      </trkpt>
      <trkpt lat="44.93734" lon="5.08212">
        <ele>275.14</ele>
        <time>2019-02-18T12:57:48.000Z</time>
      </trkpt>
      <trkpt lat="44.93724" lon="5.08213">
        <ele>276.38</ele>
        <time>2019-02-18T12:57:58.000Z</time>
      </trkpt>
      <trkpt lat="44.93715" lon="5.08213">
        <ele>277.62</ele>
        <time>2019-02-18T12:58:08.000Z</time>
      </trkpt>
      <trkpt lat="44.93705" lon="5.08214">
        <ele>279.11</ele>
        <time>2019-02-18T12:58:19.000Z</time>
      </trkpt>
      <trkpt lat="44.93695" lon="5.08213">
        <ele>280.39</ele>
        <time>2019-02-18T12:58:29.000Z</time>
      </trkpt>
      <trkpt lat="44.93686" lon="5.08213">
        <ele>281.47</ele>
        <time>2019-02-18T12:58:40.000Z</time>
      </trkpt>
      <trkpt lat="44.93676" lon="5.08213">
        <ele>282.55</ele>
        <time>2019-02-18T12:58:53.000Z</time>
      </trkpt>
      <trkpt lat="44.93667" lon="5.08213">
        <ele>283.2</ele>
        <time>2019-02-18T12:59:04.000Z</time>
      </trkpt>
      <trkpt lat="44.93657" lon="5.08215">
        <ele>283.75</ele>
        <time>2019-02-18T12:59:16.000Z</time>
      </trkpt>
      <trkpt lat="44.93648" lon="5.08216">
        <ele>284.04</ele>
        <time>2019-02-18T12:59:27.000Z</time>
      </trkpt>
      <trkpt lat="44.93638" lon="5.08218">
        <ele>284.19</ele>
        <time>2019-02-18T12:59:39.000Z</time>
      </trkpt>
      <trkpt lat="44.93629" lon="5.08223">
        <ele>284.35</ele>
        <time>2019-02-18T12:59:52.000Z</time>
      </trkpt>
      <trkpt lat="44.9362" lon="5.08228">
        <ele>284.38</ele>
        <time>2019-02-18T13:00:03.000Z</time>
      </trkpt>
      <trkpt lat="44.93612" lon="5.08234">
        <ele>284.39</ele>
        <time>2019-02-18T13:00:13.000Z</time>
      </trkpt>
      <trkpt lat="44.93604" lon="5.08242">
        <ele>284.38</ele>
        <time>2019-02-18T13:00:23.000Z</time>
      </trkpt>
      <trkpt lat="44.93594" lon="5.08248">
        <ele>284.27</ele>
        <time>2019-02-18T13:00:33.000Z</time>
      </trkpt>
      <trkpt lat="44.93585" lon="5.08255">
        <ele>284.16</ele>
        <time>2019-02-18T13:00:43.000Z</time>
      </trkpt>
      <trkpt lat="44.93576" lon="5.08262">
        <ele>284.09</ele>
        <time>2019-02-18T13:00:53.000Z</time>
      </trkpt>
      <trkpt lat="44.93567" lon="5.0827">
        <ele>283.95</ele>
        <time>2019-02-18T13:01:03.000Z</time>
      </trkpt>
      <trkpt lat="44.93558" lon="5.08278">
        <ele>283.72</ele>
        <time>2019-02-18T13:01:13.000Z</time>
      </trkpt>
      <trkpt lat="44.9355" lon="5.08285">
        <ele>283.45</ele>
        <time>2019-02-18T13:01:23.000Z</time>
      </trkpt>
      <trkpt lat="44.9354" lon="5.08292">
        <ele>283.08</ele>
        <time>2019-02-18T13:01:33.000Z</time>
      </trkpt>
      <trkpt lat="44.93531" lon="5.083">
        <ele>282.72</ele>
        <time>2019-02-18T13:01:43.000Z</time>
      </trkpt>
      <trkpt lat="44.9352" lon="5.08307">
        <ele>282.3</ele>
        <time>2019-02-18T13:01:53.000Z</time>
      </trkpt>
      <trkpt lat="44.93511" lon="5.08314">
        <ele>282.04</ele>
        <time>2019-02-18T13:02:03.000Z</time>
      </trkpt>
      <trkpt lat="44.93501" lon="5.08321">
        <ele>281.88</ele>
        <time>2019-02-18T13:02:13.000Z</time>
      </trkpt>
      <trkpt lat="44.93493" lon="5.08326">
        <ele>281.87</ele>
        <time>2019-02-18T13:02:25.000Z</time>
      </trkpt>
      <trkpt lat="44.93485" lon="5.08332">
        <ele>282.01</ele>
        <time>2019-02-18T13:02:37.000Z</time>
      </trkpt>
      <trkpt lat="44.93476" lon="5.08339">
        <ele>282.3</ele>
        <time>2019-02-18T13:02:47.000Z</time>
      </trkpt>
      <trkpt lat="44.93467" lon="5.08346">
        <ele>282.75</ele>
        <time>2019-02-18T13:02:57.000Z</time>
      </trkpt>
      <trkpt lat="44.93457" lon="5.08352">
        <ele>283.34</ele>
        <time>2019-02-18T13:03:07.000Z</time>
      </trkpt>
      <trkpt lat="44.9345" lon="5.0836">
        <ele>283.97</ele>
        <time>2019-02-18T13:03:17.000Z</time>
      </trkpt>
      <trkpt lat="44.93441" lon="5.08367">
        <ele>284.68</ele>
        <time>2019-02-18T13:03:27.000Z</time>
      </trkpt>
      <trkpt lat="44.93432" lon="5.08374">
        <ele>285.44</ele>
        <time>2019-02-18T13:03:37.000Z</time>
      </trkpt>
      <trkpt lat="44.93424" lon="5.08381">
        <ele>286.11</ele>
        <time>2019-02-18T13:03:47.000Z</time>
      </trkpt>
      <trkpt lat="44.93415" lon="5.08386">
        <ele>286.68</ele>
        <time>2019-02-18T13:03:57.000Z</time>
      </trkpt>
      <trkpt lat="44.93406" lon="5.08392">
        <ele>287.2</ele>
        <time>2019-02-18T13:04:07.000Z</time>
      </trkpt>
      <trkpt lat="44.93397" lon="5.08396">
        <ele>287.53</ele>
        <time>2019-02-18T13:04:17.000Z</time>
      </trkpt>
      <trkpt lat="44.93387" lon="5.084">
        <ele>287.78</ele>
        <time>2019-02-18T13:04:27.000Z</time>
      </trkpt>
      <trkpt lat="44.93377" lon="5.08401">
        <ele>287.91</ele>
        <time>2019-02-18T13:04:37.000Z</time>
      </trkpt>
      <trkpt lat="44.93368" lon="5.08402">
        <ele>287.98</ele>
        <time>2019-02-18T13:04:47.000Z</time>
      </trkpt>
      <trkpt lat="44.93359" lon="5.08403">
        <ele>288.03</ele>
        <time>2019-02-18T13:04:57.000Z</time>
      </trkpt>
      <trkpt lat="44.93348" lon="5.08405">
        <ele>288.2</ele>
        <time>2019-02-18T13:05:07.000Z</time>
      </trkpt>
      <trkpt lat="44.93339" lon="5.08406">
        <ele>288.32</ele>
        <time>2019-02-18T13:05:17.000Z</time>
      </trkpt>
      <trkpt lat="44.93329" lon="5.08408">
        <ele>288.6</ele>
        <time>2019-02-18T13:05:27.000Z</time>
      </trkpt>
      <trkpt lat="44.93319" lon="5.08409">
        <ele>288.83</ele>
        <time>2019-02-18T13:05:41.000Z</time>
      </trkpt>
      <trkpt lat="44.93304" lon="5.08409">
        <ele>289.19</ele>
        <time>2019-02-18T13:05:51.000Z</time>
      </trkpt>
      <trkpt lat="44.93294" lon="5.08411">
        <ele>289.5</ele>
        <time>2019-02-18T13:06:02.000Z</time>
      </trkpt>
      <trkpt lat="44.93285" lon="5.08411">
        <ele>289.72</ele>
        <time>2019-02-18T13:06:12.000Z</time>
      </trkpt>
      <trkpt lat="44.93275" lon="5.08412">
        <ele>290.08</ele>
        <time>2019-02-18T13:06:22.000Z</time>
      </trkpt>
      <trkpt lat="44.93264" lon="5.08413">
        <ele>290.39</ele>
        <time>2019-02-18T13:06:32.000Z</time>
      </trkpt>
      <trkpt lat="44.93254" lon="5.08415">
        <ele>290.77</ele>
        <time>2019-02-18T13:06:42.000Z</time>
      </trkpt>
      <trkpt lat="44.93244" lon="5.08415">
        <ele>291.11</ele>
        <time>2019-02-18T13:06:52.000Z</time>
      </trkpt>
      <trkpt lat="44.93235" lon="5.08416">
        <ele>291.51</ele>
        <time>2019-02-18T13:07:03.000Z</time>
      </trkpt>
      <trkpt lat="44.93225" lon="5.08416">
        <ele>291.89</ele>
        <time>2019-02-18T13:07:14.000Z</time>
      </trkpt>
      <trkpt lat="44.93216" lon="5.08417">
        <ele>292.33</ele>
        <time>2019-02-18T13:07:24.000Z</time>
      </trkpt>
      <trkpt lat="44.93207" lon="5.08418">
        <ele>292.79</ele>
        <time>2019-02-18T13:07:34.000Z</time>
      </trkpt>
      <trkpt lat="44.93196" lon="5.08419">
        <ele>293.23</ele>
        <time>2019-02-18T13:07:44.000Z</time>
      </trkpt>
      <trkpt lat="44.93188" lon="5.08421">
        <ele>293.7</ele>
        <time>2019-02-18T13:07:55.000Z</time>
      </trkpt>
      <trkpt lat="44.93178" lon="5.08422">
        <ele>294.04</ele>
        <time>2019-02-18T13:08:05.000Z</time>
      </trkpt>
      <trkpt lat="44.93169" lon="5.08423">
        <ele>294.35</ele>
        <time>2019-02-18T13:08:16.000Z</time>
      </trkpt>
      <trkpt lat="44.9316" lon="5.08425">
        <ele>294.58</ele>
        <time>2019-02-18T13:08:26.000Z</time>
      </trkpt>
      <trkpt lat="44.9315" lon="5.08428">
        <ele>294.83</ele>
        <time>2019-02-18T13:08:36.000Z</time>
      </trkpt>
      <trkpt lat="44.93141" lon="5.08432">
        <ele>294.99</ele>
        <time>2019-02-18T13:08:47.000Z</time>
      </trkpt>
      <trkpt lat="44.93131" lon="5.08436">
        <ele>295.12</ele>
        <time>2019-02-18T13:08:57.000Z</time>
      </trkpt>
      <trkpt lat="44.93122" lon="5.08439">
        <ele>295.2</ele>
        <time>2019-02-18T13:09:07.000Z</time>
      </trkpt>
      <trkpt lat="44.93111" lon="5.08444">
        <ele>295.46</ele>
        <time>2019-02-18T13:09:17.000Z</time>
      </trkpt>
      <trkpt lat="44.93102" lon="5.08447">
        <ele>295.73</ele>
        <time>2019-02-18T13:09:27.000Z</time>
      </trkpt>
      <trkpt lat="44.93092" lon="5.08449">
        <ele>296.13</ele>
        <time>2019-02-18T13:09:37.000Z</time>
      </trkpt>
      <trkpt lat="44.93082" lon="5.08451">
        <ele>296.81</ele>
        <time>2019-02-18T13:09:47.000Z</time>
      </trkpt>
      <trkpt lat="44.93073" lon="5.08451">
        <ele>297.6</ele>
        <time>2019-02-18T13:09:57.000Z</time>
      </trkpt>
      <trkpt lat="44.93063" lon="5.08454">
        <ele>298.74</ele>
        <time>2019-02-18T13:10:07.000Z</time>
      </trkpt>
      <trkpt lat="44.93054" lon="5.08454">
        <ele>299.88</ele>
        <time>2019-02-18T13:10:17.000Z</time>
      </trkpt>
      <trkpt lat="44.93044" lon="5.08452">
        <ele>300.87</ele>
        <time>2019-02-18T13:10:27.000Z</time>
      </trkpt>
      <trkpt lat="44.93035" lon="5.0845">
        <ele>301.64</ele>
        <time>2019-02-18T13:10:37.000Z</time>
      </trkpt>
      <trkpt lat="44.93026" lon="5.08445">
        <ele>301.82</ele>
        <time>2019-02-18T13:10:48.000Z</time>
      </trkpt>
      <trkpt lat="44.93018" lon="5.08438">
        <ele>301.44</ele>
        <time>2019-02-18T13:10:58.000Z</time>
      </trkpt>
      <trkpt lat="44.93008" lon="5.08434">
        <ele>301.84</ele>
        <time>2019-02-18T13:11:08.000Z</time>
      </trkpt>
      <trkpt lat="44.93" lon="5.08428">
        <ele>302.02</ele>
        <time>2019-02-18T13:11:19.000Z</time>
      </trkpt>
      <trkpt lat="44.92992" lon="5.08422">
        <ele>302.51</ele>
        <time>2019-02-18T13:11:31.000Z</time>
      </trkpt>
      <trkpt lat="44.92985" lon="5.08413">
        <ele>302.8</ele>
        <time>2019-02-18T13:12:02.000Z</time>
      </trkpt>
      <trkpt lat="44.92976" lon="5.08406">
        <ele>304.21</ele>
        <time>2019-02-18T13:12:15.000Z</time>
      </trkpt>
      <trkpt lat="44.92967" lon="5.08401">
        <ele>306.36</ele>
        <time>2019-02-18T13:12:25.000Z</time>
      </trkpt>
      <trkpt lat="44.92959" lon="5.08393">
        <ele>307.84</ele>
        <time>2019-02-18T13:14:33.000Z</time>
      </trkpt>
      <trkpt lat="44.9295" lon="5.08386">
        <ele>309.54</ele>
        <time>2019-02-18T13:14:46.000Z</time>
      </trkpt>
      <trkpt lat="44.92942" lon="5.08379">
        <ele>311.02</ele>
        <time>2019-02-18T13:15:01.000Z</time>
      </trkpt>
      <trkpt lat="44.92933" lon="5.08372">
        <ele>312.25</ele>
        <time>2019-02-18T13:15:24.000Z</time>
      </trkpt>
      <trkpt lat="44.92928" lon="5.08363">
        <ele>312.2</ele>
        <time>2019-02-18T13:17:53.000Z</time>
      </trkpt>
      <trkpt lat="44.92919" lon="5.08359">
        <ele>313.39</ele>
        <time>2019-02-18T13:18:07.000Z</time>
      </trkpt>
      <trkpt lat="44.92911" lon="5.08351">
        <ele>313.44</ele>
        <time>2019-02-18T13:18:37.000Z</time>
      </trkpt>
      <trkpt lat="44.92902" lon="5.08351">
        <ele>314.9</ele>
        <time>2019-02-18T13:18:50.000Z</time>
      </trkpt>
      <trkpt lat="44.92893" lon="5.08352">
        <ele>316.29</ele>
        <time>2019-02-18T13:19:05.000Z</time>
      </trkpt>
      <trkpt lat="44.92883" lon="5.08357">
        <ele>318.36</ele>
        <time>2019-02-18T13:19:15.000Z</time>
      </trkpt>
      <trkpt lat="44.92877" lon="5.08366">
        <ele>320.4</ele>
        <time>2019-02-18T13:19:26.000Z</time>
      </trkpt>
      <trkpt lat="44.92865" lon="5.08369">
        <ele>322.07</ele>
        <time>2019-02-18T13:19:36.000Z</time>
      </trkpt>
      <trkpt lat="44.92855" lon="5.08367">
        <ele>322.63</ele>
        <time>2019-02-18T13:19:46.000Z</time>
      </trkpt>
      <trkpt lat="44.92843" lon="5.08364">
        <ele>323.36</ele>
        <time>2019-02-18T13:19:56.000Z</time>
      </trkpt>
      <trkpt lat="44.92833" lon="5.08363">
        <ele>323.93</ele>
        <time>2019-02-18T13:20:07.000Z</time>
      </trkpt>
      <trkpt lat="44.92824" lon="5.08359">
        <ele>324.05</ele>
        <time>2019-02-18T13:20:17.000Z</time>
      </trkpt>
      <trkpt lat="44.92813" lon="5.08357">
        <ele>324.42</ele>
        <time>2019-02-18T13:20:33.000Z</time>
      </trkpt>
      <trkpt lat="44.92804" lon="5.08357">
        <ele>324.72</ele>
        <time>2019-02-18T13:20:43.000Z</time>
      </trkpt>
      <trkpt lat="44.92793" lon="5.08353">
        <ele>324.75</ele>
        <time>2019-02-18T13:20:57.000Z</time>
      </trkpt>
      <trkpt lat="44.92784" lon="5.08351">
        <ele>324.86</ele>
        <time>2019-02-18T13:21:09.000Z</time>
      </trkpt>
      <trkpt lat="44.92775" lon="5.08351">
        <ele>325</ele>
        <time>2019-02-18T13:21:20.000Z</time>
      </trkpt>
      <trkpt lat="44.92765" lon="5.08348">
        <ele>325.1</ele>
        <time>2019-02-18T13:21:32.000Z</time>
      </trkpt>
      <trkpt lat="44.92754" lon="5.08348">
        <ele>325.31</ele>
        <time>2019-02-18T13:21:42.000Z</time>
      </trkpt>
      <trkpt lat="44.92747" lon="5.08357">
        <ele>325.7</ele>
        <time>2019-02-18T13:21:53.000Z</time>
      </trkpt>
      <trkpt lat="44.92741" lon="5.08369">
        <ele>326.03</ele>
        <time>2019-02-18T13:22:03.000Z</time>
      </trkpt>
      <trkpt lat="44.9274" lon="5.08382">
        <ele>326.28</ele>
        <time>2019-02-18T13:22:13.000Z</time>
      </trkpt>
      <trkpt lat="44.9274" lon="5.08395">
        <ele>326.53</ele>
        <time>2019-02-18T13:22:23.000Z</time>
      </trkpt>
      <trkpt lat="44.92739" lon="5.08408">
        <ele>326.79</ele>
        <time>2019-02-18T13:22:33.000Z</time>
      </trkpt>
      <trkpt lat="44.92739" lon="5.08421">
        <ele>327.08</ele>
        <time>2019-02-18T13:22:44.000Z</time>
      </trkpt>
      <trkpt lat="44.92739" lon="5.08434">
        <ele>327.4</ele>
        <time>2019-02-18T13:22:57.000Z</time>
      </trkpt>
      <trkpt lat="44.92742" lon="5.08448">
        <ele>327.75</ele>
        <time>2019-02-18T13:23:07.000Z</time>
      </trkpt>
      <trkpt lat="44.92744" lon="5.08461">
        <ele>328.09</ele>
        <time>2019-02-18T13:23:21.000Z</time>
      </trkpt>
      <trkpt lat="44.92745" lon="5.08474">
        <ele>328.43</ele>
        <time>2019-02-18T13:23:35.000Z</time>
      </trkpt>
      <trkpt lat="44.92745" lon="5.0849">
        <ele>328.79</ele>
        <time>2019-02-18T13:23:45.000Z</time>
      </trkpt>
      <trkpt lat="44.92745" lon="5.08503">
        <ele>329.04</ele>
        <time>2019-02-18T13:23:56.000Z</time>
      </trkpt>
      <trkpt lat="44.92744" lon="5.08517">
        <ele>329.21</ele>
        <time>2019-02-18T13:24:07.000Z</time>
      </trkpt>
      <trkpt lat="44.92744" lon="5.08532">
        <ele>329.29</ele>
        <time>2019-02-18T13:24:17.000Z</time>
      </trkpt>
      <trkpt lat="44.92741" lon="5.08544">
        <ele>329.4</ele>
        <time>2019-02-18T13:24:28.000Z</time>
      </trkpt>
      <trkpt lat="44.92741" lon="5.08558">
        <ele>329.53</ele>
        <time>2019-02-18T13:24:44.000Z</time>
      </trkpt>
      <trkpt lat="44.92748" lon="5.08567">
        <ele>329.56</ele>
        <time>2019-02-18T13:24:55.000Z</time>
      </trkpt>
      <trkpt lat="44.92757" lon="5.08568">
        <ele>329.66</ele>
        <time>2019-02-18T13:25:11.000Z</time>
      </trkpt>
      <trkpt lat="44.92766" lon="5.08565">
        <ele>329.9</ele>
        <time>2019-02-18T13:25:23.000Z</time>
      </trkpt>
      <trkpt lat="44.92776" lon="5.08566">
        <ele>330.45</ele>
        <time>2019-02-18T13:25:33.000Z</time>
      </trkpt>
      <trkpt lat="44.92785" lon="5.08566">
        <ele>331.05</ele>
        <time>2019-02-18T13:25:48.000Z</time>
      </trkpt>
      <trkpt lat="44.92795" lon="5.0857">
        <ele>331.81</ele>
        <time>2019-02-18T13:25:58.000Z</time>
      </trkpt>
      <trkpt lat="44.92805" lon="5.08574">
        <ele>332.55</ele>
        <time>2019-02-18T13:26:09.000Z</time>
      </trkpt>
      <trkpt lat="44.92814" lon="5.08575">
        <ele>333.19</ele>
        <time>2019-02-18T13:26:20.000Z</time>
      </trkpt>
      <trkpt lat="44.92823" lon="5.08579">
        <ele>333.69</ele>
        <time>2019-02-18T13:26:31.000Z</time>
      </trkpt>
      <trkpt lat="44.9283" lon="5.08588">
        <ele>334.06</ele>
        <time>2019-02-18T13:26:43.000Z</time>
      </trkpt>
      <trkpt lat="44.92836" lon="5.08598">
        <ele>334.23</ele>
        <time>2019-02-18T13:26:53.000Z</time>
      </trkpt>
      <trkpt lat="44.92838" lon="5.08611">
        <ele>334.32</ele>
        <time>2019-02-18T13:27:04.000Z</time>
      </trkpt>
      <trkpt lat="44.92844" lon="5.08622">
        <ele>334.12</ele>
        <time>2019-02-18T13:27:15.000Z</time>
      </trkpt>
      <trkpt lat="44.92849" lon="5.08632">
        <ele>333.6</ele>
        <time>2019-02-18T13:27:25.000Z</time>
      </trkpt>
      <trkpt lat="44.92854" lon="5.08643">
        <ele>332.81</ele>
        <time>2019-02-18T13:27:36.000Z</time>
      </trkpt>
      <trkpt lat="44.92857" lon="5.08655">
        <ele>332.01</ele>
        <time>2019-02-18T13:27:47.000Z</time>
      </trkpt>
      <trkpt lat="44.92857" lon="5.08669">
        <ele>331.69</ele>
        <time>2019-02-18T13:28:21.000Z</time>
      </trkpt>
      <trkpt lat="44.92857" lon="5.08685">
        <ele>331.33</ele>
        <time>2019-02-18T13:28:31.000Z</time>
      </trkpt>
      <trkpt lat="44.92855" lon="5.08707">
        <ele>331.11</ele>
        <time>2019-02-18T13:28:41.000Z</time>
      </trkpt>
      <trkpt lat="44.92852" lon="5.08723">
        <ele>331.29</ele>
        <time>2019-02-18T13:28:51.000Z</time>
      </trkpt>
      <trkpt lat="44.92855" lon="5.08736">
        <ele>330.73</ele>
        <time>2019-02-18T13:29:04.000Z</time>
      </trkpt>
      <trkpt lat="44.9286" lon="5.08748">
        <ele>329.62</ele>
        <time>2019-02-18T13:29:15.000Z</time>
      </trkpt>
      <trkpt lat="44.92865" lon="5.08759">
        <ele>328.44</ele>
        <time>2019-02-18T13:29:31.000Z</time>
      </trkpt>
      <trkpt lat="44.9287" lon="5.0877">
        <ele>327.44</ele>
        <time>2019-02-18T13:29:46.000Z</time>
      </trkpt>
      <trkpt lat="44.92876" lon="5.08781">
        <ele>326.54</ele>
        <time>2019-02-18T13:30:04.000Z</time>
      </trkpt>
      <trkpt lat="44.92884" lon="5.08789">
        <ele>324.53</ele>
        <time>2019-02-18T13:30:32.000Z</time>
      </trkpt>
      <trkpt lat="44.92892" lon="5.088">
        <ele>322.81</ele>
        <time>2019-02-18T13:30:45.000Z</time>
      </trkpt>
      <trkpt lat="44.92898" lon="5.08811">
        <ele>321.51</ele>
        <time>2019-02-18T13:30:57.000Z</time>
      </trkpt>
      <trkpt lat="44.92904" lon="5.08822">
        <ele>320.44</ele>
        <time>2019-02-18T13:31:07.000Z</time>
      </trkpt>
      <trkpt lat="44.92907" lon="5.08835">
        <ele>319.8</ele>
        <time>2019-02-18T13:31:17.000Z</time>
      </trkpt>
      <trkpt lat="44.92909" lon="5.08848">
        <ele>319.5</ele>
        <time>2019-02-18T13:31:29.000Z</time>
      </trkpt>
      <trkpt lat="44.92912" lon="5.08863">
        <ele>318.92</ele>
        <time>2019-02-18T13:31:47.000Z</time>
      </trkpt>
      <trkpt lat="44.92914" lon="5.08876">
        <ele>318.66</ele>
        <time>2019-02-18T13:32:01.000Z</time>
      </trkpt>
      <trkpt lat="44.92919" lon="5.08888">
        <ele>317.3</ele>
        <time>2019-02-18T13:32:12.000Z</time>
      </trkpt>
      <trkpt lat="44.92921" lon="5.08902">
        <ele>316.46</ele>
        <time>2019-02-18T13:32:24.000Z</time>
      </trkpt>
      <trkpt lat="44.92922" lon="5.08918">
        <ele>315.56</ele>
        <time>2019-02-18T13:32:38.000Z</time>
      </trkpt>
      <trkpt lat="44.92923" lon="5.08932">
        <ele>314.18</ele>
        <time>2019-02-18T13:32:50.000Z</time>
      </trkpt>
      <trkpt lat="44.92923" lon="5.08945">
        <ele>312.82</ele>
        <time>2019-02-18T13:33:00.000Z</time>
      </trkpt>
      <trkpt lat="44.92923" lon="5.08958">
        <ele>311.2</ele>
        <time>2019-02-18T13:33:12.000Z</time>
      </trkpt>
      <trkpt lat="44.92923" lon="5.08971">
        <ele>309.41</ele>
        <time>2019-02-18T13:34:47.000Z</time>
      </trkpt>
      <trkpt lat="44.92923" lon="5.08984">
        <ele>307.8</ele>
        <time>2019-02-18T13:36:18.000Z</time>
      </trkpt>
      <trkpt lat="44.92914" lon="5.08992">
        <ele>308.38</ele>
        <time>2019-02-18T13:36:59.000Z</time>
      </trkpt>
      <trkpt lat="44.92922" lon="5.08983">
        <ele>308.08</ele>
        <time>2019-02-18T13:37:22.000Z</time>
      </trkpt>
      <trkpt lat="44.92914" lon="5.0899">
        <ele>308.74</ele>
        <time>2019-02-18T13:40:22.000Z</time>
      </trkpt>
      <trkpt lat="44.92905" lon="5.08996">
        <ele>309.94</ele>
        <time>2019-02-18T13:40:32.000Z</time>
      </trkpt>
      <trkpt lat="44.92893" lon="5.09003">
        <ele>312.5</ele>
        <time>2019-02-18T13:40:42.000Z</time>
      </trkpt>
      <trkpt lat="44.92884" lon="5.09008">
        <ele>314.31</ele>
        <time>2019-02-18T13:40:55.000Z</time>
      </trkpt>
      <trkpt lat="44.92877" lon="5.09016">
        <ele>315.07</ele>
        <time>2019-02-18T13:41:07.000Z</time>
      </trkpt>
      <trkpt lat="44.92871" lon="5.09026">
        <ele>315.02</ele>
        <time>2019-02-18T13:41:23.000Z</time>
      </trkpt>
      <trkpt lat="44.92862" lon="5.0903">
        <ele>316.68</ele>
        <time>2019-02-18T13:41:37.000Z</time>
      </trkpt>
      <trkpt lat="44.92853" lon="5.09033">
        <ele>318.33</ele>
        <time>2019-02-18T13:41:49.000Z</time>
      </trkpt>
      <trkpt lat="44.92842" lon="5.09036">
        <ele>320.44</ele>
        <time>2019-02-18T13:42:11.000Z</time>
      </trkpt>
      <trkpt lat="44.92832" lon="5.0904">
        <ele>321.41</ele>
        <time>2019-02-18T13:42:26.000Z</time>
      </trkpt>
      <trkpt lat="44.92823" lon="5.09043">
        <ele>322.48</ele>
        <time>2019-02-18T13:42:40.000Z</time>
      </trkpt>
      <trkpt lat="44.92814" lon="5.09047">
        <ele>323.52</ele>
        <time>2019-02-18T13:42:56.000Z</time>
      </trkpt>
      <trkpt lat="44.92806" lon="5.09053">
        <ele>324.17</ele>
        <time>2019-02-18T13:43:09.000Z</time>
      </trkpt>
      <trkpt lat="44.92797" lon="5.09059">
        <ele>324.99</ele>
        <time>2019-02-18T13:43:27.000Z</time>
      </trkpt>
      <trkpt lat="44.92789" lon="5.09066">
        <ele>325.58</ele>
        <time>2019-02-18T13:43:45.000Z</time>
      </trkpt>
      <trkpt lat="44.9278" lon="5.09069">
        <ele>327.45</ele>
        <time>2019-02-18T13:44:00.000Z</time>
      </trkpt>
      <trkpt lat="44.9277" lon="5.09069">
        <ele>329.66</ele>
        <time>2019-02-18T13:44:14.000Z</time>
      </trkpt>
      <trkpt lat="44.92761" lon="5.0907">
        <ele>331.41</ele>
        <time>2019-02-18T13:44:37.000Z</time>
      </trkpt>
      <trkpt lat="44.92753" lon="5.09075">
        <ele>332.39</ele>
        <time>2019-02-18T13:44:56.000Z</time>
      </trkpt>
      <trkpt lat="44.92744" lon="5.09078">
        <ele>333.44</ele>
        <time>2019-02-18T13:45:11.000Z</time>
      </trkpt>
      <trkpt lat="44.92735" lon="5.09084">
        <ele>334.13</ele>
        <time>2019-02-18T13:45:32.000Z</time>
      </trkpt>
      <trkpt lat="44.92726" lon="5.09089">
        <ele>334.8</ele>
        <time>2019-02-18T13:45:45.000Z</time>
      </trkpt>
      <trkpt lat="44.92718" lon="5.09094">
        <ele>335.37</ele>
        <time>2019-02-18T13:46:04.000Z</time>
      </trkpt>
      <trkpt lat="44.92708" lon="5.09097">
        <ele>336.21</ele>
        <time>2019-02-18T13:46:21.000Z</time>
      </trkpt>
      <trkpt lat="44.92698" lon="5.09098">
        <ele>337.27</ele>
        <time>2019-02-18T13:46:36.000Z</time>
      </trkpt>
      <trkpt lat="44.92689" lon="5.09092">
        <ele>338.07</ele>
        <time>2019-02-18T13:46:50.000Z</time>
      </trkpt>
      <trkpt lat="44.92682" lon="5.09085">
        <ele>338.65</ele>
        <time>2019-02-18T13:47:02.000Z</time>
      </trkpt>
      <trkpt lat="44.92673" lon="5.09078">
        <ele>339.18</ele>
        <time>2019-02-18T13:47:15.000Z</time>
      </trkpt>
      <trkpt lat="44.92667" lon="5.09067">
        <ele>339.27</ele>
        <time>2019-02-18T13:47:29.000Z</time>
      </trkpt>
      <trkpt lat="44.9266" lon="5.0906">
        <ele>339.52</ele>
        <time>2019-02-18T13:47:40.000Z</time>
      </trkpt>
      <trkpt lat="44.92651" lon="5.09057">
        <ele>340.12</ele>
        <time>2019-02-18T13:47:50.000Z</time>
      </trkpt>
      <trkpt lat="44.92641" lon="5.09051">
        <ele>340.59</ele>
        <time>2019-02-18T13:48:00.000Z</time>
      </trkpt>
      <trkpt lat="44.92632" lon="5.09044">
        <ele>340.68</ele>
        <time>2019-02-18T13:48:11.000Z</time>
      </trkpt>
      <trkpt lat="44.92624" lon="5.09037">
        <ele>340.7</ele>
        <time>2019-02-18T13:48:22.000Z</time>
      </trkpt>
      <trkpt lat="44.92615" lon="5.09031">
        <ele>340.75</ele>
        <time>2019-02-18T13:48:33.000Z</time>
      </trkpt>
      <trkpt lat="44.92606" lon="5.0902">
        <ele>340.19</ele>
        <time>2019-02-18T13:48:43.000Z</time>
      </trkpt>
      <trkpt lat="44.92597" lon="5.09012">
        <ele>339.95</ele>
        <time>2019-02-18T13:48:53.000Z</time>
      </trkpt>
      <trkpt lat="44.92588" lon="5.09005">
        <ele>339.96</ele>
        <time>2019-02-18T13:49:03.000Z</time>
      </trkpt>
      <trkpt lat="44.92582" lon="5.08996">
        <ele>339.9</ele>
        <time>2019-02-18T13:49:15.000Z</time>
      </trkpt>
      <trkpt lat="44.92574" lon="5.08988">
        <ele>340.14</ele>
        <time>2019-02-18T13:49:26.000Z</time>
      </trkpt>
      <trkpt lat="44.92567" lon="5.0898">
        <ele>340.66</ele>
        <time>2019-02-18T13:49:36.000Z</time>
      </trkpt>
      <trkpt lat="44.9256" lon="5.08971">
        <ele>341.26</ele>
        <time>2019-02-18T13:49:47.000Z</time>
      </trkpt>
      <trkpt lat="44.92553" lon="5.08963">
        <ele>342.08</ele>
        <time>2019-02-18T13:49:58.000Z</time>
      </trkpt>
      <trkpt lat="44.92546" lon="5.08953">
        <ele>342.85</ele>
        <time>2019-02-18T13:50:12.000Z</time>
      </trkpt>
      <trkpt lat="44.92537" lon="5.08946">
        <ele>343.92</ele>
        <time>2019-02-18T13:50:26.000Z</time>
      </trkpt>
      <trkpt lat="44.92531" lon="5.08938">
        <ele>344.63</ele>
        <time>2019-02-18T13:50:39.000Z</time>
      </trkpt>
      <trkpt lat="44.92524" lon="5.08928">
        <ele>345.17</ele>
        <time>2019-02-18T13:50:53.000Z</time>
      </trkpt>
      <trkpt lat="44.92516" lon="5.08921">
        <ele>345.81</ele>
        <time>2019-02-18T13:51:03.000Z</time>
      </trkpt>
      <trkpt lat="44.92508" lon="5.08915">
        <ele>346.39</ele>
        <time>2019-02-18T13:52:59.000Z</time>
      </trkpt>
      <trkpt lat="44.92507" lon="5.08929">
        <ele>346.88</ele>
        <time>2019-02-18T13:54:12.000Z</time>
      </trkpt>
      <trkpt lat="44.92507" lon="5.08942">
        <ele>347.4</ele>
        <time>2019-02-18T13:54:26.000Z</time>
      </trkpt>
      <trkpt lat="44.92505" lon="5.08955">
        <ele>348.02</ele>
        <time>2019-02-18T13:54:37.000Z</time>
      </trkpt>
      <trkpt lat="44.92504" lon="5.0897">
        <ele>348.63</ele>
        <time>2019-02-18T13:54:51.000Z</time>
      </trkpt>
      <trkpt lat="44.92503" lon="5.08984">
        <ele>349.22</ele>
        <time>2019-02-18T13:55:01.000Z</time>
      </trkpt>
      <trkpt lat="44.92501" lon="5.08999">
        <ele>349.85</ele>
        <time>2019-02-18T13:55:11.000Z</time>
      </trkpt>
      <trkpt lat="44.92499" lon="5.09012">
        <ele>350.5</ele>
        <time>2019-02-18T13:55:23.000Z</time>
      </trkpt>
      <trkpt lat="44.92495" lon="5.09024">
        <ele>351.12</ele>
        <time>2019-02-18T13:55:35.000Z</time>
      </trkpt>
      <trkpt lat="44.92494" lon="5.09038">
        <ele>351.62</ele>
        <time>2019-02-18T13:55:46.000Z</time>
      </trkpt>
      <trkpt lat="44.92495" lon="5.09051">
        <ele>352.04</ele>
        <time>2019-02-18T13:55:58.000Z</time>
      </trkpt>
      <trkpt lat="44.92496" lon="5.09064">
        <ele>352.43</ele>
        <time>2019-02-18T13:56:09.000Z</time>
      </trkpt>
      <trkpt lat="44.92497" lon="5.09078">
        <ele>352.88</ele>
        <time>2019-02-18T13:56:20.000Z</time>
      </trkpt>
      <trkpt lat="44.92497" lon="5.09092">
        <ele>353.37</ele>
        <time>2019-02-18T13:56:30.000Z</time>
      </trkpt>
      <trkpt lat="44.92497" lon="5.09104">
        <ele>353.83</ele>
        <time>2019-02-18T13:56:40.000Z</time>
      </trkpt>
      <trkpt lat="44.92497" lon="5.09118">
        <ele>354.35</ele>
        <time>2019-02-18T13:56:51.000Z</time>
      </trkpt>
      <trkpt lat="44.92497" lon="5.09131">
        <ele>354.84</ele>
        <time>2019-02-18T13:57:02.000Z</time>
      </trkpt>
      <trkpt lat="44.92499" lon="5.09146">
        <ele>355.33</ele>
        <time>2019-02-18T13:57:12.000Z</time>
      </trkpt>
      <trkpt lat="44.92498" lon="5.09159">
        <ele>355.8</ele>
        <time>2019-02-18T13:57:22.000Z</time>
      </trkpt>
      <trkpt lat="44.925" lon="5.09173">
        <ele>356.19</ele>
        <time>2019-02-18T13:57:35.000Z</time>
      </trkpt>
      <trkpt lat="44.925" lon="5.09187">
        <ele>356.57</ele>
        <time>2019-02-18T13:57:47.000Z</time>
      </trkpt>
      <trkpt lat="44.92501" lon="5.09202">
        <ele>356.89</ele>
        <time>2019-02-18T13:57:59.000Z</time>
      </trkpt>
      <trkpt lat="44.92499" lon="5.09215">
        <ele>357.21</ele>
        <time>2019-02-18T13:58:10.000Z</time>
      </trkpt>
      <trkpt lat="44.92499" lon="5.09228">
        <ele>357.51</ele>
        <time>2019-02-18T13:58:21.000Z</time>
      </trkpt>
      <trkpt lat="44.92499" lon="5.09241">
        <ele>357.8</ele>
        <time>2019-02-18T13:58:31.000Z</time>
      </trkpt>
      <trkpt lat="44.92499" lon="5.09255">
        <ele>358.14</ele>
        <time>2019-02-18T13:58:43.000Z</time>
      </trkpt>
      <trkpt lat="44.92499" lon="5.09268">
        <ele>358.48</ele>
        <time>2019-02-18T13:58:54.000Z</time>
      </trkpt>
      <trkpt lat="44.92499" lon="5.09282">
        <ele>358.87</ele>
        <time>2019-02-18T13:59:06.000Z</time>
      </trkpt>
      <trkpt lat="44.925" lon="5.09295">
        <ele>359.22</ele>
        <time>2019-02-18T13:59:17.000Z</time>
      </trkpt>
      <trkpt lat="44.92501" lon="5.09308">
        <ele>359.54</ele>
        <time>2019-02-18T13:59:27.000Z</time>
      </trkpt>
      <trkpt lat="44.92502" lon="5.09323">
        <ele>359.83</ele>
        <time>2019-02-18T13:59:40.000Z</time>
      </trkpt>
      <trkpt lat="44.92501" lon="5.09336">
        <ele>360.02</ele>
        <time>2019-02-18T13:59:53.000Z</time>
      </trkpt>
      <trkpt lat="44.92502" lon="5.09349">
        <ele>360.11</ele>
        <time>2019-02-18T14:00:05.000Z</time>
      </trkpt>
      <trkpt lat="44.92501" lon="5.09364">
        <ele>360.13</ele>
        <time>2019-02-18T14:00:20.000Z</time>
      </trkpt>
      <trkpt lat="44.92502" lon="5.09378">
        <ele>360.08</ele>
        <time>2019-02-18T14:00:33.000Z</time>
      </trkpt>
      <trkpt lat="44.92502" lon="5.09391">
        <ele>360.03</ele>
        <time>2019-02-18T14:00:46.000Z</time>
      </trkpt>
      <trkpt lat="44.925" lon="5.09405">
        <ele>360.02</ele>
        <time>2019-02-18T14:00:59.000Z</time>
      </trkpt>
      <trkpt lat="44.92497" lon="5.09418">
        <ele>360.11</ele>
        <time>2019-02-18T14:01:12.000Z</time>
      </trkpt>
      <trkpt lat="44.92493" lon="5.0943">
        <ele>360.37</ele>
        <time>2019-02-18T14:01:23.000Z</time>
      </trkpt>
      <trkpt lat="44.92487" lon="5.09441">
        <ele>360.82</ele>
        <time>2019-02-18T14:01:33.000Z</time>
      </trkpt>
      <trkpt lat="44.92482" lon="5.09452">
        <ele>361.43</ele>
        <time>2019-02-18T14:01:44.000Z</time>
      </trkpt>
      <trkpt lat="44.92476" lon="5.09462">
        <ele>362.19</ele>
        <time>2019-02-18T14:01:55.000Z</time>
      </trkpt>
      <trkpt lat="44.9247" lon="5.09473">
        <ele>363.07</ele>
        <time>2019-02-18T14:02:06.000Z</time>
      </trkpt>
      <trkpt lat="44.92464" lon="5.09483">
        <ele>364.09</ele>
        <time>2019-02-18T14:02:18.000Z</time>
      </trkpt>
      <trkpt lat="44.92457" lon="5.09493">
        <ele>365.16</ele>
        <time>2019-02-18T14:02:29.000Z</time>
      </trkpt>
      <trkpt lat="44.92451" lon="5.09502">
        <ele>366.22</ele>
        <time>2019-02-18T14:02:41.000Z</time>
      </trkpt>
      <trkpt lat="44.92443" lon="5.09511">
        <ele>367.33</ele>
        <time>2019-02-18T14:02:52.000Z</time>
      </trkpt>
      <trkpt lat="44.92436" lon="5.0952">
        <ele>368.38</ele>
        <time>2019-02-18T14:03:03.000Z</time>
      </trkpt>
      <trkpt lat="44.92429" lon="5.09531">
        <ele>369.37</ele>
        <time>2019-02-18T14:03:16.000Z</time>
      </trkpt>
      <trkpt lat="44.92421" lon="5.09539">
        <ele>370.02</ele>
        <time>2019-02-18T14:03:28.000Z</time>
      </trkpt>
      <trkpt lat="44.92417" lon="5.09551">
        <ele>370.33</ele>
        <time>2019-02-18T14:03:40.000Z</time>
      </trkpt>
      <trkpt lat="44.92411" lon="5.09561">
        <ele>370.36</ele>
        <time>2019-02-18T14:03:56.000Z</time>
      </trkpt>
      <trkpt lat="44.92404" lon="5.09571">
        <ele>370.02</ele>
        <time>2019-02-18T14:06:14.000Z</time>
      </trkpt>
      <trkpt lat="44.92398" lon="5.09582">
        <ele>369.49</ele>
        <time>2019-02-18T14:06:26.000Z</time>
      </trkpt>
      <trkpt lat="44.92392" lon="5.0959">
        <ele>368.75</ele>
        <time>2019-02-18T14:06:45.000Z</time>
      </trkpt>
      <trkpt lat="44.92385" lon="5.09603">
        <ele>368.1</ele>
        <time>2019-02-18T14:06:55.000Z</time>
      </trkpt>
      <trkpt lat="44.9238" lon="5.09613">
        <ele>367.66</ele>
        <time>2019-02-18T14:07:10.000Z</time>
      </trkpt>
      <trkpt lat="44.92375" lon="5.09625">
        <ele>367.5</ele>
        <time>2019-02-18T14:07:26.000Z</time>
      </trkpt>
      <trkpt lat="44.9237" lon="5.09635">
        <ele>367.46</ele>
        <time>2019-02-18T14:07:38.000Z</time>
      </trkpt>
      <trkpt lat="44.92364" lon="5.09645">
        <ele>367.5</ele>
        <time>2019-02-18T14:07:49.000Z</time>
      </trkpt>
      <trkpt lat="44.92357" lon="5.09657">
        <ele>367.72</ele>
        <time>2019-02-18T14:07:59.000Z</time>
      </trkpt>
      <trkpt lat="44.92352" lon="5.09668">
        <ele>367.91</ele>
        <time>2019-02-18T14:08:10.000Z</time>
      </trkpt>
      <trkpt lat="44.92348" lon="5.09679">
        <ele>368.12</ele>
        <time>2019-02-18T14:08:20.000Z</time>
      </trkpt>
      <trkpt lat="44.92345" lon="5.09692">
        <ele>368.35</ele>
        <time>2019-02-18T14:08:31.000Z</time>
      </trkpt>
      <trkpt lat="44.92339" lon="5.09702">
        <ele>368.81</ele>
        <time>2019-02-18T14:08:42.000Z</time>
      </trkpt>
      <trkpt lat="44.92332" lon="5.09712">
        <ele>369.37</ele>
        <time>2019-02-18T14:08:53.000Z</time>
      </trkpt>
      <trkpt lat="44.92326" lon="5.09722">
        <ele>369.8</ele>
        <time>2019-02-18T14:09:03.000Z</time>
      </trkpt>
      <trkpt lat="44.92319" lon="5.0973">
        <ele>370.23</ele>
        <time>2019-02-18T14:09:13.000Z</time>
      </trkpt>
      <trkpt lat="44.92311" lon="5.09736">
        <ele>370.6</ele>
        <time>2019-02-18T14:09:24.000Z</time>
      </trkpt>
      <trkpt lat="44.92302" lon="5.09741">
        <ele>370.91</ele>
        <time>2019-02-18T14:09:35.000Z</time>
      </trkpt>
      <trkpt lat="44.92294" lon="5.09746">
        <ele>371.24</ele>
        <time>2019-02-18T14:09:49.000Z</time>
      </trkpt>
      <trkpt lat="44.92286" lon="5.09754">
        <ele>371.67</ele>
        <time>2019-02-18T14:10:00.000Z</time>
      </trkpt>
      <trkpt lat="44.92275" lon="5.09757">
        <ele>372.24</ele>
        <time>2019-02-18T14:10:12.000Z</time>
      </trkpt>
      <trkpt lat="44.92267" lon="5.0976">
        <ele>372.87</ele>
        <time>2019-02-18T14:10:24.000Z</time>
      </trkpt>
      <trkpt lat="44.92258" lon="5.09766">
        <ele>374.03</ele>
        <time>2019-02-18T14:10:38.000Z</time>
      </trkpt>
      <trkpt lat="44.9225" lon="5.09774">
        <ele>375.58</ele>
        <time>2019-02-18T14:10:51.000Z</time>
      </trkpt>
      <trkpt lat="44.92241" lon="5.09778">
        <ele>376.85</ele>
        <time>2019-02-18T14:11:05.000Z</time>
      </trkpt>
      <trkpt lat="44.92232" lon="5.09784">
        <ele>378.28</ele>
        <time>2019-02-18T14:11:24.000Z</time>
      </trkpt>
      <trkpt lat="44.92222" lon="5.09787">
        <ele>379.23</ele>
        <time>2019-02-18T14:11:37.000Z</time>
      </trkpt>
      <trkpt lat="44.92214" lon="5.09793">
        <ele>380.11</ele>
        <time>2019-02-18T14:11:49.000Z</time>
      </trkpt>
      <trkpt lat="44.92206" lon="5.098">
        <ele>380.76</ele>
        <time>2019-02-18T14:11:59.000Z</time>
      </trkpt>
      <trkpt lat="44.92198" lon="5.09806">
        <ele>381.07</ele>
        <time>2019-02-18T14:12:25.000Z</time>
      </trkpt>
      <trkpt lat="44.92188" lon="5.09816">
        <ele>381.01</ele>
        <time>2019-02-18T14:12:35.000Z</time>
      </trkpt>
      <trkpt lat="44.9218" lon="5.09823">
        <ele>380.7</ele>
        <time>2019-02-18T14:12:46.000Z</time>
      </trkpt>
      <trkpt lat="44.92172" lon="5.09829">
        <ele>380.28</ele>
        <time>2019-02-18T14:12:56.000Z</time>
      </trkpt>
      <trkpt lat="44.92164" lon="5.09836">
        <ele>379.81</ele>
        <time>2019-02-18T14:13:06.000Z</time>
      </trkpt>
      <trkpt lat="44.92158" lon="5.09847">
        <ele>378.89</ele>
        <time>2019-02-18T14:13:19.000Z</time>
      </trkpt>
      <trkpt lat="44.9215" lon="5.09858">
        <ele>377.83</ele>
        <time>2019-02-18T14:13:34.000Z</time>
      </trkpt>
      <trkpt lat="44.92145" lon="5.09869">
        <ele>376.78</ele>
        <time>2019-02-18T14:13:44.000Z</time>
      </trkpt>
      <trkpt lat="44.92137" lon="5.09881">
        <ele>375.75</ele>
        <time>2019-02-18T14:14:02.000Z</time>
      </trkpt>
      <trkpt lat="44.9213" lon="5.09891">
        <ele>375.31</ele>
        <time>2019-02-18T14:14:14.000Z</time>
      </trkpt>
      <trkpt lat="44.92122" lon="5.09898">
        <ele>375.28</ele>
        <time>2019-02-18T14:14:25.000Z</time>
      </trkpt>
      <trkpt lat="44.92113" lon="5.09904">
        <ele>375.62</ele>
        <time>2019-02-18T14:14:37.000Z</time>
      </trkpt>
      <trkpt lat="44.92103" lon="5.09907">
        <ele>376.46</ele>
        <time>2019-02-18T14:14:47.000Z</time>
      </trkpt>
      <trkpt lat="44.92093" lon="5.0991">
        <ele>376.99</ele>
        <time>2019-02-18T14:14:58.000Z</time>
      </trkpt>
      <trkpt lat="44.92085" lon="5.09917">
        <ele>376.84</ele>
        <time>2019-02-18T14:15:12.000Z</time>
      </trkpt>
      <trkpt lat="44.92076" lon="5.09924">
        <ele>376.57</ele>
        <time>2019-02-18T14:15:26.000Z</time>
      </trkpt>
      <trkpt lat="44.92069" lon="5.09932">
        <ele>375.75</ele>
        <time>2019-02-18T14:15:36.000Z</time>
      </trkpt>
      <trkpt lat="44.92063" lon="5.09941">
        <ele>374.83</ele>
        <time>2019-02-18T14:15:46.000Z</time>
      </trkpt>
      <trkpt lat="44.92057" lon="5.09951">
        <ele>373.76</ele>
        <time>2019-02-18T14:15:56.000Z</time>
      </trkpt>
      <trkpt lat="44.9205" lon="5.09959">
        <ele>373.42</ele>
        <time>2019-02-18T14:16:07.000Z</time>
      </trkpt>
      <trkpt lat="44.92042" lon="5.09966">
        <ele>373.84</ele>
        <time>2019-02-18T14:16:18.000Z</time>
      </trkpt>
      <trkpt lat="44.92033" lon="5.09974">
        <ele>374.71</ele>
        <time>2019-02-18T14:16:28.000Z</time>
      </trkpt>
      <trkpt lat="44.92024" lon="5.09978">
        <ele>376.01</ele>
        <time>2019-02-18T14:16:38.000Z</time>
      </trkpt>
      <trkpt lat="44.92014" lon="5.0998">
        <ele>377.37</ele>
        <time>2019-02-18T14:16:49.000Z</time>
      </trkpt>
      <trkpt lat="44.92006" lon="5.09984">
        <ele>378.36</ele>
        <time>2019-02-18T14:16:59.000Z</time>
      </trkpt>
      <trkpt lat="44.9201" lon="5.09995">
        <ele>377.85</ele>
        <time>2019-02-18T14:17:09.000Z</time>
      </trkpt>
      <trkpt lat="44.92019" lon="5.10007">
        <ele>376.42</ele>
        <time>2019-02-18T14:17:19.000Z</time>
      </trkpt>
      <trkpt lat="44.92019" lon="5.1002">
        <ele>376.54</ele>
        <time>2019-02-18T14:17:32.000Z</time>
      </trkpt>
      <trkpt lat="44.92022" lon="5.10033">
        <ele>376.32</ele>
        <time>2019-02-18T14:17:43.000Z</time>
      </trkpt>
      <trkpt lat="44.92024" lon="5.10046">
        <ele>376.35</ele>
        <time>2019-02-18T14:17:53.000Z</time>
      </trkpt>
      <trkpt lat="44.92025" lon="5.10059">
        <ele>376.61</ele>
        <time>2019-02-18T14:18:05.000Z</time>
      </trkpt>
      <trkpt lat="44.92026" lon="5.10072">
        <ele>376.73</ele>
        <time>2019-02-18T14:18:19.000Z</time>
      </trkpt>
      <trkpt lat="44.92029" lon="5.10086">
        <ele>376.74</ele>
        <time>2019-02-18T14:18:31.000Z</time>
      </trkpt>
      <trkpt lat="44.9203" lon="5.10099">
        <ele>376.92</ele>
        <time>2019-02-18T14:18:41.000Z</time>
      </trkpt>
      <trkpt lat="44.9203" lon="5.10112">
        <ele>377.2</ele>
        <time>2019-02-18T14:18:51.000Z</time>
      </trkpt>
      <trkpt lat="44.92032" lon="5.10125">
        <ele>377.35</ele>
        <time>2019-02-18T14:19:02.000Z</time>
      </trkpt>
      <trkpt lat="44.92032" lon="5.10138">
        <ele>377.57</ele>
        <time>2019-02-18T14:19:12.000Z</time>
      </trkpt>
      <trkpt lat="44.92036" lon="5.10151">
        <ele>377.36</ele>
        <time>2019-02-18T14:19:22.000Z</time>
      </trkpt>
      <trkpt lat="44.92039" lon="5.10164">
        <ele>377.18</ele>
        <time>2019-02-18T14:19:33.000Z</time>
      </trkpt>
      <trkpt lat="44.92043" lon="5.10177">
        <ele>376.78</ele>
        <time>2019-02-18T14:19:44.000Z</time>
      </trkpt>
      <trkpt lat="44.92046" lon="5.1019">
        <ele>376.51</ele>
        <time>2019-02-18T14:19:55.000Z</time>
      </trkpt>
      <trkpt lat="44.9205" lon="5.10202">
        <ele>376.3</ele>
        <time>2019-02-18T14:20:06.000Z</time>
      </trkpt>
      <trkpt lat="44.92055" lon="5.10214">
        <ele>376.28</ele>
        <time>2019-02-18T14:20:16.000Z</time>
      </trkpt>
      <trkpt lat="44.92059" lon="5.10226">
        <ele>376.45</ele>
        <time>2019-02-18T14:20:26.000Z</time>
      </trkpt>
      <trkpt lat="44.92064" lon="5.10238">
        <ele>376.81</ele>
        <time>2019-02-18T14:20:39.000Z</time>
      </trkpt>
      <trkpt lat="44.92069" lon="5.10248">
        <ele>377.2</ele>
        <time>2019-02-18T14:20:50.000Z</time>
      </trkpt>
      <trkpt lat="44.92077" lon="5.10256">
        <ele>377.48</ele>
        <time>2019-02-18T14:21:08.000Z</time>
      </trkpt>
      <trkpt lat="44.92085" lon="5.10262">
        <ele>377.58</ele>
        <time>2019-02-18T14:21:19.000Z</time>
      </trkpt>
      <trkpt lat="44.92094" lon="5.10269">
        <ele>377.55</ele>
        <time>2019-02-18T14:21:32.000Z</time>
      </trkpt>
      <trkpt lat="44.92102" lon="5.10276">
        <ele>377.41</ele>
        <time>2019-02-18T14:21:45.000Z</time>
      </trkpt>
      <trkpt lat="44.92111" lon="5.10285">
        <ele>377.43</ele>
        <time>2019-02-18T14:22:03.000Z</time>
      </trkpt>
      <trkpt lat="44.92119" lon="5.10293">
        <ele>377.52</ele>
        <time>2019-02-18T14:22:15.000Z</time>
      </trkpt>
      <trkpt lat="44.92129" lon="5.10298">
        <ele>377.37</ele>
        <time>2019-02-18T14:22:33.000Z</time>
      </trkpt>
      <trkpt lat="44.92138" lon="5.10304">
        <ele>377.54</ele>
        <time>2019-02-18T14:22:44.000Z</time>
      </trkpt>
      <trkpt lat="44.92148" lon="5.10311">
        <ele>377.84</ele>
        <time>2019-02-18T14:22:54.000Z</time>
      </trkpt>
      <trkpt lat="44.92156" lon="5.10321">
        <ele>378.75</ele>
        <time>2019-02-18T14:23:09.000Z</time>
      </trkpt>
      <trkpt lat="44.92158" lon="5.10333">
        <ele>380.06</ele>
        <time>2019-02-18T14:23:24.000Z</time>
      </trkpt>
      <trkpt lat="44.92163" lon="5.10346">
        <ele>381.17</ele>
        <time>2019-02-18T14:23:35.000Z</time>
      </trkpt>
      <trkpt lat="44.92167" lon="5.10358">
        <ele>382.08</ele>
        <time>2019-02-18T14:23:45.000Z</time>
      </trkpt>
      <trkpt lat="44.9217" lon="5.1037">
        <ele>382.87</ele>
        <time>2019-02-18T14:23:59.000Z</time>
      </trkpt>
      <trkpt lat="44.92177" lon="5.1038">
        <ele>383.62</ele>
        <time>2019-02-18T14:24:27.000Z</time>
      </trkpt>
      <trkpt lat="44.92183" lon="5.1039">
        <ele>384.4</ele>
        <time>2019-02-18T14:24:42.000Z</time>
      </trkpt>
      <trkpt lat="44.92189" lon="5.10401">
        <ele>385.18</ele>
        <time>2019-02-18T14:24:53.000Z</time>
      </trkpt>
      <trkpt lat="44.92196" lon="5.10409">
        <ele>385.94</ele>
        <time>2019-02-18T14:25:03.000Z</time>
      </trkpt>
      <trkpt lat="44.92202" lon="5.10419">
        <ele>386.64</ele>
        <time>2019-02-18T14:25:13.000Z</time>
      </trkpt>
      <trkpt lat="44.92208" lon="5.10431">
        <ele>387.09</ele>
        <time>2019-02-18T14:25:23.000Z</time>
      </trkpt>
      <trkpt lat="44.92215" lon="5.1044">
        <ele>387.38</ele>
        <time>2019-02-18T14:25:41.000Z</time>
      </trkpt>
      <trkpt lat="44.92222" lon="5.10449">
        <ele>387.48</ele>
        <time>2019-02-18T14:25:51.000Z</time>
      </trkpt>
      <trkpt lat="44.92229" lon="5.10457">
        <ele>387.69</ele>
        <time>2019-02-18T14:26:03.000Z</time>
      </trkpt>
      <trkpt lat="44.92238" lon="5.10462">
        <ele>387.96</ele>
        <time>2019-02-18T14:26:14.000Z</time>
      </trkpt>
      <trkpt lat="44.92246" lon="5.10466">
        <ele>388.21</ele>
        <time>2019-02-18T14:26:38.000Z</time>
      </trkpt>
      <trkpt lat="44.92254" lon="5.10473">
        <ele>388.2</ele>
        <time>2019-02-18T14:26:48.000Z</time>
      </trkpt>
      <trkpt lat="44.92261" lon="5.10484">
        <ele>388.04</ele>
        <time>2019-02-18T14:27:06.000Z</time>
      </trkpt>
      <trkpt lat="44.92267" lon="5.10494">
        <ele>388.02</ele>
        <time>2019-02-18T14:27:19.000Z</time>
      </trkpt>
      <trkpt lat="44.92272" lon="5.10505">
        <ele>388.2</ele>
        <time>2019-02-18T14:27:30.000Z</time>
      </trkpt>
      <trkpt lat="44.92278" lon="5.10515">
        <ele>388.42</ele>
        <time>2019-02-18T14:27:43.000Z</time>
      </trkpt>
      <trkpt lat="44.92284" lon="5.10526">
        <ele>388.69</ele>
        <time>2019-02-18T14:27:53.000Z</time>
      </trkpt>
      <trkpt lat="44.92291" lon="5.10535">
        <ele>389.05</ele>
        <time>2019-02-18T14:28:09.000Z</time>
      </trkpt>
      <trkpt lat="44.92297" lon="5.10546">
        <ele>389.45</ele>
        <time>2019-02-18T14:28:22.000Z</time>
      </trkpt>
      <trkpt lat="44.92302" lon="5.10557">
        <ele>389.76</ele>
        <time>2019-02-18T14:28:39.000Z</time>
      </trkpt>
      <trkpt lat="44.9231" lon="5.10565">
        <ele>390.38</ele>
        <time>2019-02-18T14:31:40.000Z</time>
      </trkpt>
      <trkpt lat="44.92317" lon="5.10579">
        <ele>391.04</ele>
        <time>2019-02-18T14:31:50.000Z</time>
      </trkpt>
      <trkpt lat="44.92323" lon="5.10588">
        <ele>391.69</ele>
        <time>2019-02-18T14:32:03.000Z</time>
      </trkpt>
      <trkpt lat="44.92328" lon="5.106">
        <ele>392.32</ele>
        <time>2019-02-18T14:32:17.000Z</time>
      </trkpt>
      <trkpt lat="44.92335" lon="5.1061">
        <ele>392.95</ele>
        <time>2019-02-18T14:32:32.000Z</time>
      </trkpt>
      <trkpt lat="44.92339" lon="5.10622">
        <ele>393.54</ele>
        <time>2019-02-18T14:32:43.000Z</time>
      </trkpt>
      <trkpt lat="44.92345" lon="5.10633">
        <ele>394.08</ele>
        <time>2019-02-18T14:32:53.000Z</time>
      </trkpt>
      <trkpt lat="44.9235" lon="5.10644">
        <ele>394.57</ele>
        <time>2019-02-18T14:33:03.000Z</time>
      </trkpt>
      <trkpt lat="44.92355" lon="5.10655">
        <ele>395</ele>
        <time>2019-02-18T14:33:13.000Z</time>
      </trkpt>
      <trkpt lat="44.9236" lon="5.10666">
        <ele>395.41</ele>
        <time>2019-02-18T14:33:23.000Z</time>
      </trkpt>
      <trkpt lat="44.92366" lon="5.10676">
        <ele>395.76</ele>
        <time>2019-02-18T14:33:35.000Z</time>
      </trkpt>
      <trkpt lat="44.92371" lon="5.10687">
        <ele>396.15</ele>
        <time>2019-02-18T14:33:50.000Z</time>
      </trkpt>
      <trkpt lat="44.92377" lon="5.10698">
        <ele>396.55</ele>
        <time>2019-02-18T14:34:00.000Z</time>
      </trkpt>
      <trkpt lat="44.92383" lon="5.10709">
        <ele>396.98</ele>
        <time>2019-02-18T14:34:13.000Z</time>
      </trkpt>
      <trkpt lat="44.92389" lon="5.10719">
        <ele>397.44</ele>
        <time>2019-02-18T14:34:23.000Z</time>
      </trkpt>
      <trkpt lat="44.92395" lon="5.10731">
        <ele>397.96</ele>
        <time>2019-02-18T14:34:37.000Z</time>
      </trkpt>
      <trkpt lat="44.92402" lon="5.10742">
        <ele>398.52</ele>
        <time>2019-02-18T14:34:47.000Z</time>
      </trkpt>
      <trkpt lat="44.92408" lon="5.10752">
        <ele>399.1</ele>
        <time>2019-02-18T14:34:58.000Z</time>
      </trkpt>
      <trkpt lat="44.92413" lon="5.10764">
        <ele>399.76</ele>
        <time>2019-02-18T14:35:10.000Z</time>
      </trkpt>
      <trkpt lat="44.92417" lon="5.10776">
        <ele>400.43</ele>
        <time>2019-02-18T14:35:22.000Z</time>
      </trkpt>
      <trkpt lat="44.92423" lon="5.10786">
        <ele>401.05</ele>
        <time>2019-02-18T14:35:39.000Z</time>
      </trkpt>
      <trkpt lat="44.92432" lon="5.10789">
        <ele>401.12</ele>
        <time>2019-02-18T14:35:49.000Z</time>
      </trkpt>
      <trkpt lat="44.92442" lon="5.10789">
        <ele>400.98</ele>
        <time>2019-02-18T14:36:00.000Z</time>
      </trkpt>
      <trkpt lat="44.92452" lon="5.10791">
        <ele>400.9</ele>
        <time>2019-02-18T14:36:10.000Z</time>
      </trkpt>
      <trkpt lat="44.92462" lon="5.10792">
        <ele>400.67</ele>
        <time>2019-02-18T14:36:21.000Z</time>
      </trkpt>
      <trkpt lat="44.92471" lon="5.10795">
        <ele>400.46</ele>
        <time>2019-02-18T14:36:31.000Z</time>
      </trkpt>
      <trkpt lat="44.9248" lon="5.10798">
        <ele>400.27</ele>
        <time>2019-02-18T14:36:42.000Z</time>
      </trkpt>
      <trkpt lat="44.92489" lon="5.10801">
        <ele>400.01</ele>
        <time>2019-02-18T14:36:52.000Z</time>
      </trkpt>
      <trkpt lat="44.92498" lon="5.10798">
        <ele>399.41</ele>
        <time>2019-02-18T14:37:35.000Z</time>
      </trkpt>
      <trkpt lat="44.92506" lon="5.10791">
        <ele>398.67</ele>
        <time>2019-02-18T14:37:53.000Z</time>
      </trkpt>
      <trkpt lat="44.92513" lon="5.10784">
        <ele>397.9</ele>
        <time>2019-02-18T14:38:04.000Z</time>
      </trkpt>
      <trkpt lat="44.92522" lon="5.10779">
        <ele>397.1</ele>
        <time>2019-02-18T14:38:14.000Z</time>
      </trkpt>
      <trkpt lat="44.9253" lon="5.10771">
        <ele>396.27</ele>
        <time>2019-02-18T14:38:25.000Z</time>
      </trkpt>
      <trkpt lat="44.92539" lon="5.10765">
        <ele>395.46</ele>
        <time>2019-02-18T14:38:36.000Z</time>
      </trkpt>
      <trkpt lat="44.92547" lon="5.10758">
        <ele>394.68</ele>
        <time>2019-02-18T14:38:47.000Z</time>
      </trkpt>
      <trkpt lat="44.92554" lon="5.10749">
        <ele>393.89</ele>
        <time>2019-02-18T14:38:59.000Z</time>
      </trkpt>
      <trkpt lat="44.92562" lon="5.10742">
        <ele>393.2</ele>
        <time>2019-02-18T14:39:09.000Z</time>
      </trkpt>
      <trkpt lat="44.92569" lon="5.10734">
        <ele>392.58</ele>
        <time>2019-02-18T14:39:20.000Z</time>
      </trkpt>
      <trkpt lat="44.92577" lon="5.10727">
        <ele>391.97</ele>
        <time>2019-02-18T14:39:30.000Z</time>
      </trkpt>
      <trkpt lat="44.92586" lon="5.1072">
        <ele>391.35</ele>
        <time>2019-02-18T14:39:42.000Z</time>
      </trkpt>
      <trkpt lat="44.92594" lon="5.10714">
        <ele>390.69</ele>
        <time>2019-02-18T14:39:53.000Z</time>
      </trkpt>
      <trkpt lat="44.92603" lon="5.1071">
        <ele>389.98</ele>
        <time>2019-02-18T14:40:04.000Z</time>
      </trkpt>
      <trkpt lat="44.92615" lon="5.10707">
        <ele>389.05</ele>
        <time>2019-02-18T14:40:14.000Z</time>
      </trkpt>
      <trkpt lat="44.92626" lon="5.10702">
        <ele>388.05</ele>
        <time>2019-02-18T14:40:24.000Z</time>
      </trkpt>
      <trkpt lat="44.92635" lon="5.10699">
        <ele>387.12</ele>
        <time>2019-02-18T14:40:34.000Z</time>
      </trkpt>
      <trkpt lat="44.92644" lon="5.10694">
        <ele>386.19</ele>
        <time>2019-02-18T14:40:45.000Z</time>
      </trkpt>
      <trkpt lat="44.92652" lon="5.10687">
        <ele>385.22</ele>
        <time>2019-02-18T14:40:57.000Z</time>
      </trkpt>
      <trkpt lat="44.92659" lon="5.10679">
        <ele>384.2</ele>
        <time>2019-02-18T14:41:10.000Z</time>
      </trkpt>
      <trkpt lat="44.92666" lon="5.10669">
        <ele>383.16</ele>
        <time>2019-02-18T14:41:24.000Z</time>
      </trkpt>
      <trkpt lat="44.92674" lon="5.10661">
        <ele>382.09</ele>
        <time>2019-02-18T14:41:34.000Z</time>
      </trkpt>
      <trkpt lat="44.92682" lon="5.10655">
        <ele>381.07</ele>
        <time>2019-02-18T14:41:44.000Z</time>
      </trkpt>
      <trkpt lat="44.92689" lon="5.10648">
        <ele>380.06</ele>
        <time>2019-02-18T14:41:54.000Z</time>
      </trkpt>
      <trkpt lat="44.92697" lon="5.1064">
        <ele>378.98</ele>
        <time>2019-02-18T14:42:05.000Z</time>
      </trkpt>
      <trkpt lat="44.92707" lon="5.10637">
        <ele>377.89</ele>
        <time>2019-02-18T14:42:15.000Z</time>
      </trkpt>
      <trkpt lat="44.92716" lon="5.10633">
        <ele>376.77</ele>
        <time>2019-02-18T14:42:26.000Z</time>
      </trkpt>
      <trkpt lat="44.92725" lon="5.10632">
        <ele>375.7</ele>
        <time>2019-02-18T14:42:36.000Z</time>
      </trkpt>
      <trkpt lat="44.92735" lon="5.10631">
        <ele>374.59</ele>
        <time>2019-02-18T14:42:47.000Z</time>
      </trkpt>
      <trkpt lat="44.92744" lon="5.10632">
        <ele>373.59</ele>
        <time>2019-02-18T14:42:57.000Z</time>
      </trkpt>
      <trkpt lat="44.92754" lon="5.1063">
        <ele>372.51</ele>
        <time>2019-02-18T14:43:10.000Z</time>
      </trkpt>
      <trkpt lat="44.92763" lon="5.1063">
        <ele>371.5</ele>
        <time>2019-02-18T14:43:23.000Z</time>
      </trkpt>
      <trkpt lat="44.92772" lon="5.10629">
        <ele>370.42</ele>
        <time>2019-02-18T14:43:37.000Z</time>
      </trkpt>
      <trkpt lat="44.92781" lon="5.10624">
        <ele>369.34</ele>
        <time>2019-02-18T14:43:49.000Z</time>
      </trkpt>
      <trkpt lat="44.9279" lon="5.10621">
        <ele>368.2</ele>
        <time>2019-02-18T14:44:01.000Z</time>
      </trkpt>
      <trkpt lat="44.92799" lon="5.10617">
        <ele>367.05</ele>
        <time>2019-02-18T14:44:12.000Z</time>
      </trkpt>
      <trkpt lat="44.92807" lon="5.10612">
        <ele>365.96</ele>
        <time>2019-02-18T14:44:24.000Z</time>
      </trkpt>
      <trkpt lat="44.92814" lon="5.10602">
        <ele>364.88</ele>
        <time>2019-02-18T14:44:39.000Z</time>
      </trkpt>
      <trkpt lat="44.92823" lon="5.10598">
        <ele>363.71</ele>
        <time>2019-02-18T14:44:52.000Z</time>
      </trkpt>
      <trkpt lat="44.92833" lon="5.10594">
        <ele>362.46</ele>
        <time>2019-02-18T14:45:02.000Z</time>
      </trkpt>
      <trkpt lat="44.92842" lon="5.10589">
        <ele>361.18</ele>
        <time>2019-02-18T14:45:19.000Z</time>
      </trkpt>
      <trkpt lat="44.9285" lon="5.10583">
        <ele>359.81</ele>
        <time>2019-02-18T14:45:31.000Z</time>
      </trkpt>
      <trkpt lat="44.92859" lon="5.10578">
        <ele>358.44</ele>
        <time>2019-02-18T14:45:42.000Z</time>
      </trkpt>
      <trkpt lat="44.92868" lon="5.10574">
        <ele>356.96</ele>
        <time>2019-02-18T14:45:53.000Z</time>
      </trkpt>
      <trkpt lat="44.92877" lon="5.10568">
        <ele>355.53</ele>
        <time>2019-02-18T14:46:05.000Z</time>
      </trkpt>
      <trkpt lat="44.92886" lon="5.10562">
        <ele>354.14</ele>
        <time>2019-02-18T14:46:15.000Z</time>
      </trkpt>
      <trkpt lat="44.92895" lon="5.10555">
        <ele>352.77</ele>
        <time>2019-02-18T14:46:28.000Z</time>
      </trkpt>
      <trkpt lat="44.92905" lon="5.1055">
        <ele>351.76</ele>
        <time>2019-02-18T14:46:40.000Z</time>
      </trkpt>
      <trkpt lat="44.92914" lon="5.10549">
        <ele>351.17</ele>
        <time>2019-02-18T14:46:50.000Z</time>
      </trkpt>
      <trkpt lat="44.92923" lon="5.10548">
        <ele>350.94</ele>
        <time>2019-02-18T14:47:00.000Z</time>
      </trkpt>
      <trkpt lat="44.92934" lon="5.10546">
        <ele>351.05</ele>
        <time>2019-02-18T14:47:10.000Z</time>
      </trkpt>
      <trkpt lat="44.92944" lon="5.10545">
        <ele>351.48</ele>
        <time>2019-02-18T14:47:20.000Z</time>
      </trkpt>
      <trkpt lat="44.92952" lon="5.10538">
        <ele>352.01</ele>
        <time>2019-02-18T14:47:30.000Z</time>
      </trkpt>
      <trkpt lat="44.92958" lon="5.10527">
        <ele>352.63</ele>
        <time>2019-02-18T14:47:41.000Z</time>
      </trkpt>
      <trkpt lat="44.92965" lon="5.10517">
        <ele>353.41</ele>
        <time>2019-02-18T14:47:51.000Z</time>
      </trkpt>
      <trkpt lat="44.9297" lon="5.10507">
        <ele>354.04</ele>
        <time>2019-02-18T14:48:02.000Z</time>
      </trkpt>
      <trkpt lat="44.92974" lon="5.10492">
        <ele>354.32</ele>
        <time>2019-02-18T14:48:12.000Z</time>
      </trkpt>
      <trkpt lat="44.92976" lon="5.10477">
        <ele>354.03</ele>
        <time>2019-02-18T14:48:22.000Z</time>
      </trkpt>
      <trkpt lat="44.92979" lon="5.1046">
        <ele>353.34</ele>
        <time>2019-02-18T14:48:32.000Z</time>
      </trkpt>
      <trkpt lat="44.92983" lon="5.10446">
        <ele>352.76</ele>
        <time>2019-02-18T14:48:42.000Z</time>
      </trkpt>
      <trkpt lat="44.92985" lon="5.10433">
        <ele>352.09</ele>
        <time>2019-02-18T14:48:52.000Z</time>
      </trkpt>
      <trkpt lat="44.92987" lon="5.10419">
        <ele>351.44</ele>
        <time>2019-02-18T14:49:02.000Z</time>
      </trkpt>
      <trkpt lat="44.92993" lon="5.10404">
        <ele>350.96</ele>
        <time>2019-02-18T14:49:12.000Z</time>
      </trkpt>
      <trkpt lat="44.92995" lon="5.10391">
        <ele>350.34</ele>
        <time>2019-02-18T14:49:22.000Z</time>
      </trkpt>
      <trkpt lat="44.93001" lon="5.1038">
        <ele>349.99</ele>
        <time>2019-02-18T14:49:32.000Z</time>
      </trkpt>
      <trkpt lat="44.93007" lon="5.10368">
        <ele>349.59</ele>
        <time>2019-02-18T14:49:42.000Z</time>
      </trkpt>
      <trkpt lat="44.93013" lon="5.10355">
        <ele>349.27</ele>
        <time>2019-02-18T14:49:52.000Z</time>
      </trkpt>
      <trkpt lat="44.93019" lon="5.10343">
        <ele>349.12</ele>
        <time>2019-02-18T14:50:02.000Z</time>
      </trkpt>
      <trkpt lat="44.93025" lon="5.1033">
        <ele>349.14</ele>
        <time>2019-02-18T14:50:12.000Z</time>
      </trkpt>
      <trkpt lat="44.9303" lon="5.10318">
        <ele>349.43</ele>
        <time>2019-02-18T14:50:22.000Z</time>
      </trkpt>
      <trkpt lat="44.93036" lon="5.10306">
        <ele>349.78</ele>
        <time>2019-02-18T14:50:32.000Z</time>
      </trkpt>
      <trkpt lat="44.93041" lon="5.10295">
        <ele>349.95</ele>
        <time>2019-02-18T14:50:42.000Z</time>
      </trkpt>
      <trkpt lat="44.93048" lon="5.10282">
        <ele>349.76</ele>
        <time>2019-02-18T14:50:52.000Z</time>
      </trkpt>
      <trkpt lat="44.93054" lon="5.1027">
        <ele>349.32</ele>
        <time>2019-02-18T14:51:02.000Z</time>
      </trkpt>
      <trkpt lat="44.93059" lon="5.10259">
        <ele>348.62</ele>
        <time>2019-02-18T14:51:12.000Z</time>
      </trkpt>
      <trkpt lat="44.93065" lon="5.10246">
        <ele>347.56</ele>
        <time>2019-02-18T14:51:22.000Z</time>
      </trkpt>
      <trkpt lat="44.93072" lon="5.10234">
        <ele>346.27</ele>
        <time>2019-02-18T14:51:32.000Z</time>
      </trkpt>
      <trkpt lat="44.93077" lon="5.10222">
        <ele>345.32</ele>
        <time>2019-02-18T14:51:42.000Z</time>
      </trkpt>
      <trkpt lat="44.93084" lon="5.10211">
        <ele>344.53</ele>
        <time>2019-02-18T14:51:52.000Z</time>
      </trkpt>
      <trkpt lat="44.9309" lon="5.10201">
        <ele>344</ele>
        <time>2019-02-18T14:52:02.000Z</time>
      </trkpt>
      <trkpt lat="44.93098" lon="5.10191">
        <ele>343.78</ele>
        <time>2019-02-18T14:52:12.000Z</time>
      </trkpt>
      <trkpt lat="44.93104" lon="5.10182">
        <ele>343.76</ele>
        <time>2019-02-18T14:52:22.000Z</time>
      </trkpt>
      <trkpt lat="44.93111" lon="5.10171">
        <ele>343.9</ele>
        <time>2019-02-18T14:52:32.000Z</time>
      </trkpt>
      <trkpt lat="44.93119" lon="5.10163">
        <ele>344.42</ele>
        <time>2019-02-18T14:52:42.000Z</time>
      </trkpt>
      <trkpt lat="44.93126" lon="5.10152">
        <ele>345.04</ele>
        <time>2019-02-18T14:52:52.000Z</time>
      </trkpt>
      <trkpt lat="44.93133" lon="5.10142">
        <ele>346.04</ele>
        <time>2019-02-18T14:53:02.000Z</time>
      </trkpt>
      <trkpt lat="44.9314" lon="5.10132">
        <ele>347.19</ele>
        <time>2019-02-18T14:53:12.000Z</time>
      </trkpt>
      <trkpt lat="44.93146" lon="5.10121">
        <ele>348.41</ele>
        <time>2019-02-18T14:53:22.000Z</time>
      </trkpt>
      <trkpt lat="44.93153" lon="5.10112">
        <ele>349.69</ele>
        <time>2019-02-18T14:53:32.000Z</time>
      </trkpt>
      <trkpt lat="44.93162" lon="5.101">
        <ele>351.03</ele>
        <time>2019-02-18T14:53:42.000Z</time>
      </trkpt>
      <trkpt lat="44.93171" lon="5.10093">
        <ele>351.98</ele>
        <time>2019-02-18T14:53:52.000Z</time>
      </trkpt>
      <trkpt lat="44.93179" lon="5.10086">
        <ele>352.58</ele>
        <time>2019-02-18T14:54:05.000Z</time>
      </trkpt>
      <trkpt lat="44.93187" lon="5.10077">
        <ele>352.78</ele>
        <time>2019-02-18T14:54:15.000Z</time>
      </trkpt>
      <trkpt lat="44.93196" lon="5.10068">
        <ele>352.87</ele>
        <time>2019-02-18T14:54:25.000Z</time>
      </trkpt>
      <trkpt lat="44.93206" lon="5.10062">
        <ele>352.92</ele>
        <time>2019-02-18T14:54:35.000Z</time>
      </trkpt>
      <trkpt lat="44.93214" lon="5.10054">
        <ele>352.28</ele>
        <time>2019-02-18T14:54:46.000Z</time>
      </trkpt>
      <trkpt lat="44.93223" lon="5.10047">
        <ele>351.6</ele>
        <time>2019-02-18T14:54:56.000Z</time>
      </trkpt>
      <trkpt lat="44.93233" lon="5.10042">
        <ele>350.96</ele>
        <time>2019-02-18T14:55:06.000Z</time>
      </trkpt>
      <trkpt lat="44.93242" lon="5.10037">
        <ele>350.25</ele>
        <time>2019-02-18T14:55:17.000Z</time>
      </trkpt>
      <trkpt lat="44.93254" lon="5.10037">
        <ele>350.53</ele>
        <time>2019-02-18T14:55:27.000Z</time>
      </trkpt>
      <trkpt lat="44.93267" lon="5.10034">
        <ele>350.37</ele>
        <time>2019-02-18T14:55:37.000Z</time>
      </trkpt>
      <trkpt lat="44.93277" lon="5.10033">
        <ele>350.63</ele>
        <time>2019-02-18T14:55:47.000Z</time>
      </trkpt>
      <trkpt lat="44.93287" lon="5.10032">
        <ele>350.62</ele>
        <time>2019-02-18T14:55:57.000Z</time>
      </trkpt>
      <trkpt lat="44.93296" lon="5.1003">
        <ele>350.5</ele>
        <time>2019-02-18T14:56:07.000Z</time>
      </trkpt>
      <trkpt lat="44.93308" lon="5.10026">
        <ele>350.05</ele>
        <time>2019-02-18T14:56:17.000Z</time>
      </trkpt>
      <trkpt lat="44.93317" lon="5.10021">
        <ele>349.3</ele>
        <time>2019-02-18T14:56:27.000Z</time>
      </trkpt>
      <trkpt lat="44.93326" lon="5.10016">
        <ele>348.52</ele>
        <time>2019-02-18T14:56:37.000Z</time>
      </trkpt>
      <trkpt lat="44.93336" lon="5.10013">
        <ele>347.9</ele>
        <time>2019-02-18T14:56:47.000Z</time>
      </trkpt>
      <trkpt lat="44.93347" lon="5.10011">
        <ele>347.27</ele>
        <time>2019-02-18T14:56:57.000Z</time>
      </trkpt>
      <trkpt lat="44.93357" lon="5.10011">
        <ele>346.71</ele>
        <time>2019-02-18T14:57:07.000Z</time>
      </trkpt>
      <trkpt lat="44.93367" lon="5.10012">
        <ele>346.05</ele>
        <time>2019-02-18T14:57:17.000Z</time>
      </trkpt>
      <trkpt lat="44.93376" lon="5.10015">
        <ele>345.45</ele>
        <time>2019-02-18T14:57:27.000Z</time>
      </trkpt>
      <trkpt lat="44.93386" lon="5.10015">
        <ele>344.44</ele>
        <time>2019-02-18T14:57:37.000Z</time>
      </trkpt>
      <trkpt lat="44.93396" lon="5.10014">
        <ele>343.29</ele>
        <time>2019-02-18T14:57:48.000Z</time>
      </trkpt>
      <trkpt lat="44.93407" lon="5.10013">
        <ele>342.03</ele>
        <time>2019-02-18T14:57:58.000Z</time>
      </trkpt>
      <trkpt lat="44.93417" lon="5.10011">
        <ele>340.9</ele>
        <time>2019-02-18T14:58:09.000Z</time>
      </trkpt>
      <trkpt lat="44.93426" lon="5.1001">
        <ele>339.82</ele>
        <time>2019-02-18T14:58:21.000Z</time>
      </trkpt>
      <trkpt lat="44.93436" lon="5.1001">
        <ele>338.69</ele>
        <time>2019-02-18T14:58:34.000Z</time>
      </trkpt>
      <trkpt lat="44.93447" lon="5.10009">
        <ele>337.29</ele>
        <time>2019-02-18T14:58:44.000Z</time>
      </trkpt>
      <trkpt lat="44.93457" lon="5.1001">
        <ele>336.09</ele>
        <time>2019-02-18T14:58:55.000Z</time>
      </trkpt>
      <trkpt lat="44.93467" lon="5.10008">
        <ele>334.74</ele>
        <time>2019-02-18T14:59:05.000Z</time>
      </trkpt>
      <trkpt lat="44.93476" lon="5.10007">
        <ele>333.47</ele>
        <time>2019-02-18T14:59:15.000Z</time>
      </trkpt>
      <trkpt lat="44.93487" lon="5.10006">
        <ele>331.97</ele>
        <time>2019-02-18T14:59:25.000Z</time>
      </trkpt>
      <trkpt lat="44.93497" lon="5.10005">
        <ele>330.77</ele>
        <time>2019-02-18T14:59:38.000Z</time>
      </trkpt>
      <trkpt lat="44.93507" lon="5.10003">
        <ele>329.35</ele>
        <time>2019-02-18T14:59:48.000Z</time>
      </trkpt>
      <trkpt lat="44.93515" lon="5.09996">
        <ele>327.88</ele>
        <time>2019-02-18T15:00:04.000Z</time>
      </trkpt>
      <trkpt lat="44.93525" lon="5.09995">
        <ele>326.54</ele>
        <time>2019-02-18T15:00:26.000Z</time>
      </trkpt>
      <trkpt lat="44.93535" lon="5.09995">
        <ele>325.14</ele>
        <time>2019-02-18T15:00:36.000Z</time>
      </trkpt>
      <trkpt lat="44.93545" lon="5.09994">
        <ele>323.84</ele>
        <time>2019-02-18T15:00:47.000Z</time>
      </trkpt>
      <trkpt lat="44.93554" lon="5.09992">
        <ele>322.64</ele>
        <time>2019-02-18T15:00:57.000Z</time>
      </trkpt>
      <trkpt lat="44.93564" lon="5.09989">
        <ele>321.54</ele>
        <time>2019-02-18T15:01:08.000Z</time>
      </trkpt>
      <trkpt lat="44.93573" lon="5.09987">
        <ele>320.56</ele>
        <time>2019-02-18T15:01:19.000Z</time>
      </trkpt>
      <trkpt lat="44.93582" lon="5.09984">
        <ele>319.81</ele>
        <time>2019-02-18T15:01:29.000Z</time>
      </trkpt>
      <trkpt lat="44.93592" lon="5.09983">
        <ele>319.23</ele>
        <time>2019-02-18T15:01:39.000Z</time>
      </trkpt>
      <trkpt lat="44.93601" lon="5.09981">
        <ele>318.87</ele>
        <time>2019-02-18T15:01:50.000Z</time>
      </trkpt>
      <trkpt lat="44.9361" lon="5.09977">
        <ele>318.7</ele>
        <time>2019-02-18T15:02:01.000Z</time>
      </trkpt>
      <trkpt lat="44.93619" lon="5.09971">
        <ele>318.69</ele>
        <time>2019-02-18T15:02:13.000Z</time>
      </trkpt>
      <trkpt lat="44.9363" lon="5.09964">
        <ele>318.82</ele>
        <time>2019-02-18T15:02:23.000Z</time>
      </trkpt>
      <trkpt lat="44.9364" lon="5.09955">
        <ele>319.05</ele>
        <time>2019-02-18T15:02:33.000Z</time>
      </trkpt>
      <trkpt lat="44.93648" lon="5.09948">
        <ele>319.26</ele>
        <time>2019-02-18T15:02:43.000Z</time>
      </trkpt>
      <trkpt lat="44.9365" lon="5.09935">
        <ele>319.59</ele>
        <time>2019-02-18T15:04:36.000Z</time>
      </trkpt>
      <trkpt lat="44.93652" lon="5.09922">
        <ele>319.86</ele>
        <time>2019-02-18T15:04:56.000Z</time>
      </trkpt>
      <trkpt lat="44.93654" lon="5.09909">
        <ele>320.03</ele>
        <time>2019-02-18T15:05:07.000Z</time>
      </trkpt>
      <trkpt lat="44.93656" lon="5.09896">
        <ele>320.09</ele>
        <time>2019-02-18T15:05:18.000Z</time>
      </trkpt>
      <trkpt lat="44.93659" lon="5.09884">
        <ele>320.11</ele>
        <time>2019-02-18T15:05:30.000Z</time>
      </trkpt>
      <trkpt lat="44.93665" lon="5.09873">
        <ele>320.15</ele>
        <time>2019-02-18T15:05:40.000Z</time>
      </trkpt>
      <trkpt lat="44.93672" lon="5.09861">
        <ele>320.2</ele>
        <time>2019-02-18T15:05:50.000Z</time>
      </trkpt>
      <trkpt lat="44.93676" lon="5.09848">
        <ele>320.2</ele>
        <time>2019-02-18T15:06:00.000Z</time>
      </trkpt>
      <trkpt lat="44.93682" lon="5.09832">
        <ele>320.27</ele>
        <time>2019-02-18T15:06:10.000Z</time>
      </trkpt>
      <trkpt lat="44.93685" lon="5.09815">
        <ele>320.37</ele>
        <time>2019-02-18T15:06:20.000Z</time>
      </trkpt>
      <trkpt lat="44.93685" lon="5.09801">
        <ele>320.46</ele>
        <time>2019-02-18T15:06:30.000Z</time>
      </trkpt>
      <trkpt lat="44.93686" lon="5.09786">
        <ele>320.52</ele>
        <time>2019-02-18T15:06:40.000Z</time>
      </trkpt>
      <trkpt lat="44.9369" lon="5.0977">
        <ele>320.44</ele>
        <time>2019-02-18T15:06:50.000Z</time>
      </trkpt>
      <trkpt lat="44.93693" lon="5.09756">
        <ele>320.22</ele>
        <time>2019-02-18T15:07:00.000Z</time>
      </trkpt>
      <trkpt lat="44.93693" lon="5.09742">
        <ele>319.89</ele>
        <time>2019-02-18T15:07:11.000Z</time>
      </trkpt>
      <trkpt lat="44.93694" lon="5.09729">
        <ele>319.46</ele>
        <time>2019-02-18T15:07:21.000Z</time>
      </trkpt>
      <trkpt lat="44.93695" lon="5.09715">
        <ele>318.91</ele>
        <time>2019-02-18T15:07:32.000Z</time>
      </trkpt>
      <trkpt lat="44.93697" lon="5.09701">
        <ele>318.37</ele>
        <time>2019-02-18T15:07:42.000Z</time>
      </trkpt>
      <trkpt lat="44.93697" lon="5.09687">
        <ele>317.71</ele>
        <time>2019-02-18T15:07:52.000Z</time>
      </trkpt>
      <trkpt lat="44.93696" lon="5.09671">
        <ele>316.92</ele>
        <time>2019-02-18T15:08:02.000Z</time>
      </trkpt>
      <trkpt lat="44.93698" lon="5.09656">
        <ele>316.3</ele>
        <time>2019-02-18T15:08:27.000Z</time>
      </trkpt>
      <trkpt lat="44.937" lon="5.09636">
        <ele>315.24</ele>
        <time>2019-02-18T15:08:37.000Z</time>
      </trkpt>
      <trkpt lat="44.93701" lon="5.09614">
        <ele>314.02</ele>
        <time>2019-02-18T15:08:47.000Z</time>
      </trkpt>
      <trkpt lat="44.93703" lon="5.09593">
        <ele>313.28</ele>
        <time>2019-02-18T15:08:57.000Z</time>
      </trkpt>
      <trkpt lat="44.93705" lon="5.09574">
        <ele>313.17</ele>
        <time>2019-02-18T15:09:07.000Z</time>
      </trkpt>
      <trkpt lat="44.93707" lon="5.09555">
        <ele>313.39</ele>
        <time>2019-02-18T15:09:17.000Z</time>
      </trkpt>
      <trkpt lat="44.9371" lon="5.09542">
        <ele>313.87</ele>
        <time>2019-02-18T15:09:33.000Z</time>
      </trkpt>
      <trkpt lat="44.93712" lon="5.09529">
        <ele>314.37</ele>
        <time>2019-02-18T15:09:46.000Z</time>
      </trkpt>
      <trkpt lat="44.93715" lon="5.09516">
        <ele>314.83</ele>
        <time>2019-02-18T15:09:58.000Z</time>
      </trkpt>
      <trkpt lat="44.93717" lon="5.09502">
        <ele>315.2</ele>
        <time>2019-02-18T15:10:11.000Z</time>
      </trkpt>
      <trkpt lat="44.93714" lon="5.09486">
        <ele>315.05</ele>
        <time>2019-02-18T15:10:24.000Z</time>
      </trkpt>
      <trkpt lat="44.93708" lon="5.09481">
        <ele>314.41</ele>
        <time>2019-02-18T15:11:17.000Z</time>
      </trkpt>
    </trkseg>
  </trk>
</gpx>